<?xml version="1.0" encoding="UTF-8" standalone="no" ?>
<gpx xmlns="http://www.topografix.com/GPX/1/1" xmlns:xsi="http://www.w3.org/2001/XMLSchema-instance" xsi:schemaLocation="http://www.topografix.com/GPX/1/1 http://www.topografix.com/GPX/1/1/gpx.xsd" version="1.1" creator="VisuGPX - https://www.visugpx.com">
  <metadata>
    <name>Trace Balade autour de Valaurie du 14/12/2017</name>
    <desc><![CDATA[Randonnée à la demi-journée effectuée par 19 membres du SCLapalud]]></desc>
  </metadata>
  <trk>
    <name><![CDATA[14-DEC-17 16:25:11]]></name>
    <trkseg>
      <trkpt lat="44.42127" lon="4.81396">
        <ele>118.38</ele>
        <time>2017-12-14T12:32:52Z</time>
      </trkpt>
      <trkpt lat="44.42127" lon="4.81396">
        <ele>118.38</ele>
        <time>2017-12-14T12:33:17Z</time>
      </trkpt>
      <trkpt lat="44.42127" lon="4.81395">
        <ele>118.86</ele>
        <time>2017-12-14T12:33:41Z</time>
      </trkpt>
      <trkpt lat="44.42124" lon="4.81387">
        <ele>118.86</ele>
        <time>2017-12-14T12:33:55Z</time>
      </trkpt>
      <trkpt lat="44.42123" lon="4.81379">
        <ele>119.34</ele>
        <time>2017-12-14T12:34:02Z</time>
      </trkpt>
      <trkpt lat="44.42125" lon="4.81358">
        <ele>121.26</ele>
        <time>2017-12-14T12:34:19Z</time>
      </trkpt>
      <trkpt lat="44.42131" lon="4.81361">
        <ele>123.19</ele>
        <time>2017-12-14T12:34:29Z</time>
      </trkpt>
      <trkpt lat="44.42143" lon="4.81346">
        <ele>125.11</ele>
        <time>2017-12-14T12:34:44Z</time>
      </trkpt>
      <trkpt lat="44.42144" lon="4.81336">
        <ele>126.07</ele>
        <time>2017-12-14T12:34:51Z</time>
      </trkpt>
      <trkpt lat="44.42149" lon="4.81325">
        <ele>126.07</ele>
        <time>2017-12-14T12:35:01Z</time>
      </trkpt>
      <trkpt lat="44.42149" lon="4.81322">
        <ele>126.55</ele>
        <time>2017-12-14T12:35:03Z</time>
      </trkpt>
      <trkpt lat="44.42149" lon="4.81317">
        <ele>126.55</ele>
        <time>2017-12-14T12:35:06Z</time>
      </trkpt>
      <trkpt lat="44.42151" lon="4.8131">
        <ele>127.03</ele>
        <time>2017-12-14T12:35:11Z</time>
      </trkpt>
      <trkpt lat="44.42153" lon="4.81304">
        <ele>127.51</ele>
        <time>2017-12-14T12:35:15Z</time>
      </trkpt>
      <trkpt lat="44.42155" lon="4.81299">
        <ele>127.99</ele>
        <time>2017-12-14T12:35:18Z</time>
      </trkpt>
      <trkpt lat="44.42163" lon="4.81285">
        <ele>128.95</ele>
        <time>2017-12-14T12:35:32Z</time>
      </trkpt>
      <trkpt lat="44.42168" lon="4.81282">
        <ele>129.92</ele>
        <time>2017-12-14T12:35:38Z</time>
      </trkpt>
      <trkpt lat="44.42179" lon="4.81275">
        <ele>130.88</ele>
        <time>2017-12-14T12:35:51Z</time>
      </trkpt>
      <trkpt lat="44.42186" lon="4.81274">
        <ele>131.84</ele>
        <time>2017-12-14T12:36:02Z</time>
      </trkpt>
      <trkpt lat="44.42188" lon="4.81274">
        <ele>131.84</ele>
        <time>2017-12-14T12:36:03Z</time>
      </trkpt>
      <trkpt lat="44.42191" lon="4.81272">
        <ele>132.32</ele>
        <time>2017-12-14T12:36:08Z</time>
      </trkpt>
      <trkpt lat="44.42205" lon="4.81271">
        <ele>134.72</ele>
        <time>2017-12-14T12:36:23Z</time>
      </trkpt>
      <trkpt lat="44.42221" lon="4.81272">
        <ele>135.68</ele>
        <time>2017-12-14T12:36:39Z</time>
      </trkpt>
      <trkpt lat="44.42223" lon="4.81271">
        <ele>136.16</ele>
        <time>2017-12-14T12:36:41Z</time>
      </trkpt>
      <trkpt lat="44.42236" lon="4.81266">
        <ele>137.13</ele>
        <time>2017-12-14T12:36:55Z</time>
      </trkpt>
      <trkpt lat="44.42249" lon="4.81262">
        <ele>138.09</ele>
        <time>2017-12-14T12:37:09Z</time>
      </trkpt>
      <trkpt lat="44.42251" lon="4.81261">
        <ele>138.57</ele>
        <time>2017-12-14T12:37:12Z</time>
      </trkpt>
      <trkpt lat="44.4226" lon="4.8126">
        <ele>139.05</ele>
        <time>2017-12-14T12:37:25Z</time>
      </trkpt>
      <trkpt lat="44.42261" lon="4.8126">
        <ele>139.05</ele>
        <time>2017-12-14T12:37:26Z</time>
      </trkpt>
      <trkpt lat="44.42276" lon="4.81266">
        <ele>140.01</ele>
        <time>2017-12-14T12:37:40Z</time>
      </trkpt>
      <trkpt lat="44.42293" lon="4.81271">
        <ele>140.97</ele>
        <time>2017-12-14T12:37:55Z</time>
      </trkpt>
      <trkpt lat="44.42297" lon="4.81271">
        <ele>141.45</ele>
        <time>2017-12-14T12:37:58Z</time>
      </trkpt>
      <trkpt lat="44.42314" lon="4.81278">
        <ele>142.89</ele>
        <time>2017-12-14T12:38:14Z</time>
      </trkpt>
      <trkpt lat="44.42321" lon="4.8128">
        <ele>143.37</ele>
        <time>2017-12-14T12:38:20Z</time>
      </trkpt>
      <trkpt lat="44.42326" lon="4.8128">
        <ele>143.85</ele>
        <time>2017-12-14T12:38:25Z</time>
      </trkpt>
      <trkpt lat="44.42336" lon="4.81277">
        <ele>144.34</ele>
        <time>2017-12-14T12:38:36Z</time>
      </trkpt>
      <trkpt lat="44.42355" lon="4.81273">
        <ele>144.34</ele>
        <time>2017-12-14T12:38:53Z</time>
      </trkpt>
      <trkpt lat="44.42368" lon="4.81268">
        <ele>144.34</ele>
        <time>2017-12-14T12:39:08Z</time>
      </trkpt>
      <trkpt lat="44.4237" lon="4.81266">
        <ele>144.34</ele>
        <time>2017-12-14T12:39:10Z</time>
      </trkpt>
      <trkpt lat="44.42376" lon="4.81264">
        <ele>144.82</ele>
        <time>2017-12-14T12:39:17Z</time>
      </trkpt>
      <trkpt lat="44.42392" lon="4.8126">
        <ele>144.82</ele>
        <time>2017-12-14T12:39:34Z</time>
      </trkpt>
      <trkpt lat="44.42394" lon="4.81259">
        <ele>145.3</ele>
        <time>2017-12-14T12:39:37Z</time>
      </trkpt>
      <trkpt lat="44.42405" lon="4.81257">
        <ele>145.78</ele>
        <time>2017-12-14T12:39:51Z</time>
      </trkpt>
      <trkpt lat="44.42423" lon="4.81257">
        <ele>145.78</ele>
        <time>2017-12-14T12:40:06Z</time>
      </trkpt>
      <trkpt lat="44.42439" lon="4.81256">
        <ele>145.3</ele>
        <time>2017-12-14T12:40:20Z</time>
      </trkpt>
      <trkpt lat="44.42443" lon="4.81256">
        <ele>145.3</ele>
        <time>2017-12-14T12:40:23Z</time>
      </trkpt>
      <trkpt lat="44.42447" lon="4.81255">
        <ele>145.3</ele>
        <time>2017-12-14T12:40:27Z</time>
      </trkpt>
      <trkpt lat="44.42459" lon="4.81258">
        <ele>144.82</ele>
        <time>2017-12-14T12:40:42Z</time>
      </trkpt>
      <trkpt lat="44.42475" lon="4.81269">
        <ele>142.41</ele>
        <time>2017-12-14T12:40:59Z</time>
      </trkpt>
      <trkpt lat="44.42493" lon="4.81286">
        <ele>140.49</ele>
        <time>2017-12-14T12:41:20Z</time>
      </trkpt>
      <trkpt lat="44.42513" lon="4.81297">
        <ele>138.57</ele>
        <time>2017-12-14T12:41:39Z</time>
      </trkpt>
      <trkpt lat="44.42526" lon="4.81304">
        <ele>137.13</ele>
        <time>2017-12-14T12:41:57Z</time>
      </trkpt>
      <trkpt lat="44.42546" lon="4.81308">
        <ele>135.68</ele>
        <time>2017-12-14T12:42:15Z</time>
      </trkpt>
      <trkpt lat="44.42562" lon="4.81314">
        <ele>133.76</ele>
        <time>2017-12-14T12:42:33Z</time>
      </trkpt>
      <trkpt lat="44.42574" lon="4.81314">
        <ele>133.28</ele>
        <time>2017-12-14T12:42:45Z</time>
      </trkpt>
      <trkpt lat="44.42589" lon="4.81318">
        <ele>132.8</ele>
        <time>2017-12-14T12:42:59Z</time>
      </trkpt>
      <trkpt lat="44.42611" lon="4.81319">
        <ele>132.32</ele>
        <time>2017-12-14T12:43:17Z</time>
      </trkpt>
      <trkpt lat="44.42617" lon="4.81316">
        <ele>132.32</ele>
        <time>2017-12-14T12:43:24Z</time>
      </trkpt>
      <trkpt lat="44.42629" lon="4.81302">
        <ele>131.84</ele>
        <time>2017-12-14T12:43:39Z</time>
      </trkpt>
      <trkpt lat="44.42632" lon="4.81297">
        <ele>131.84</ele>
        <time>2017-12-14T12:43:43Z</time>
      </trkpt>
      <trkpt lat="44.42639" lon="4.81287">
        <ele>131.36</ele>
        <time>2017-12-14T12:43:52Z</time>
      </trkpt>
      <trkpt lat="44.42651" lon="4.81272">
        <ele>130.88</ele>
        <time>2017-12-14T12:44:07Z</time>
      </trkpt>
      <trkpt lat="44.42666" lon="4.81257">
        <ele>129.92</ele>
        <time>2017-12-14T12:44:24Z</time>
      </trkpt>
      <trkpt lat="44.42671" lon="4.81241">
        <ele>129.43</ele>
        <time>2017-12-14T12:44:34Z</time>
      </trkpt>
      <trkpt lat="44.42688" lon="4.81229">
        <ele>128.47</ele>
        <time>2017-12-14T12:44:51Z</time>
      </trkpt>
      <trkpt lat="44.42699" lon="4.81214">
        <ele>127.99</ele>
        <time>2017-12-14T12:45:05Z</time>
      </trkpt>
      <trkpt lat="44.42707" lon="4.81193">
        <ele>127.51</ele>
        <time>2017-12-14T12:45:21Z</time>
      </trkpt>
      <trkpt lat="44.427" lon="4.81164">
        <ele>126.55</ele>
        <time>2017-12-14T12:45:39Z</time>
      </trkpt>
      <trkpt lat="44.42694" lon="4.81143">
        <ele>126.07</ele>
        <time>2017-12-14T12:45:57Z</time>
      </trkpt>
      <trkpt lat="44.42687" lon="4.81116">
        <ele>125.59</ele>
        <time>2017-12-14T12:46:15Z</time>
      </trkpt>
      <trkpt lat="44.4268" lon="4.81096">
        <ele>125.11</ele>
        <time>2017-12-14T12:46:29Z</time>
      </trkpt>
      <trkpt lat="44.42676" lon="4.81073">
        <ele>124.63</ele>
        <time>2017-12-14T12:46:44Z</time>
      </trkpt>
      <trkpt lat="44.42679" lon="4.81068">
        <ele>124.15</ele>
        <time>2017-12-14T12:46:48Z</time>
      </trkpt>
      <trkpt lat="44.42691" lon="4.81063">
        <ele>124.15</ele>
        <time>2017-12-14T12:47:04Z</time>
      </trkpt>
      <trkpt lat="44.42699" lon="4.81063">
        <ele>124.15</ele>
        <time>2017-12-14T12:47:19Z</time>
      </trkpt>
      <trkpt lat="44.42698" lon="4.81064">
        <ele>124.15</ele>
        <time>2017-12-14T12:47:41Z</time>
      </trkpt>
      <trkpt lat="44.42702" lon="4.81059">
        <ele>124.15</ele>
        <time>2017-12-14T12:48:00Z</time>
      </trkpt>
      <trkpt lat="44.42714" lon="4.81058">
        <ele>124.63</ele>
        <time>2017-12-14T12:48:17Z</time>
      </trkpt>
      <trkpt lat="44.42716" lon="4.81059">
        <ele>124.15</ele>
        <time>2017-12-14T12:48:19Z</time>
      </trkpt>
      <trkpt lat="44.42736" lon="4.8106">
        <ele>125.59</ele>
        <time>2017-12-14T12:48:37Z</time>
      </trkpt>
      <trkpt lat="44.42752" lon="4.81061">
        <ele>125.59</ele>
        <time>2017-12-14T12:48:54Z</time>
      </trkpt>
      <trkpt lat="44.4277" lon="4.81066">
        <ele>126.07</ele>
        <time>2017-12-14T12:49:11Z</time>
      </trkpt>
      <trkpt lat="44.42787" lon="4.81068">
        <ele>126.55</ele>
        <time>2017-12-14T12:49:26Z</time>
      </trkpt>
      <trkpt lat="44.42803" lon="4.81068">
        <ele>127.03</ele>
        <time>2017-12-14T12:49:42Z</time>
      </trkpt>
      <trkpt lat="44.42813" lon="4.81066">
        <ele>127.03</ele>
        <time>2017-12-14T12:49:54Z</time>
      </trkpt>
      <trkpt lat="44.42825" lon="4.81066">
        <ele>127.51</ele>
        <time>2017-12-14T12:50:04Z</time>
      </trkpt>
      <trkpt lat="44.42844" lon="4.81064">
        <ele>127.99</ele>
        <time>2017-12-14T12:50:21Z</time>
      </trkpt>
      <trkpt lat="44.42856" lon="4.81076">
        <ele>128.47</ele>
        <time>2017-12-14T12:50:36Z</time>
      </trkpt>
      <trkpt lat="44.42855" lon="4.81094">
        <ele>128.95</ele>
        <time>2017-12-14T12:50:49Z</time>
      </trkpt>
      <trkpt lat="44.42852" lon="4.81105">
        <ele>129.92</ele>
        <time>2017-12-14T12:51:01Z</time>
      </trkpt>
      <trkpt lat="44.42852" lon="4.81119">
        <ele>130.4</ele>
        <time>2017-12-14T12:51:13Z</time>
      </trkpt>
      <trkpt lat="44.42857" lon="4.81131">
        <ele>131.84</ele>
        <time>2017-12-14T12:51:28Z</time>
      </trkpt>
      <trkpt lat="44.42862" lon="4.81141">
        <ele>132.8</ele>
        <time>2017-12-14T12:51:39Z</time>
      </trkpt>
      <trkpt lat="44.42865" lon="4.81139">
        <ele>133.28</ele>
        <time>2017-12-14T12:51:45Z</time>
      </trkpt>
      <trkpt lat="44.42874" lon="4.81131">
        <ele>134.24</ele>
        <time>2017-12-14T12:51:57Z</time>
      </trkpt>
      <trkpt lat="44.42877" lon="4.81127">
        <ele>134.24</ele>
        <time>2017-12-14T12:52:02Z</time>
      </trkpt>
      <trkpt lat="44.42887" lon="4.81121">
        <ele>135.2</ele>
        <time>2017-12-14T12:52:14Z</time>
      </trkpt>
      <trkpt lat="44.4289" lon="4.81118">
        <ele>135.68</ele>
        <time>2017-12-14T12:52:18Z</time>
      </trkpt>
      <trkpt lat="44.42894" lon="4.81117">
        <ele>135.68</ele>
        <time>2017-12-14T12:52:21Z</time>
      </trkpt>
      <trkpt lat="44.42909" lon="4.81112">
        <ele>136.64</ele>
        <time>2017-12-14T12:52:36Z</time>
      </trkpt>
      <trkpt lat="44.4292" lon="4.81108">
        <ele>137.13</ele>
        <time>2017-12-14T12:52:46Z</time>
      </trkpt>
      <trkpt lat="44.42934" lon="4.81102">
        <ele>138.09</ele>
        <time>2017-12-14T12:53:01Z</time>
      </trkpt>
      <trkpt lat="44.42949" lon="4.81105">
        <ele>139.05</ele>
        <time>2017-12-14T12:53:16Z</time>
      </trkpt>
      <trkpt lat="44.4295" lon="4.81105">
        <ele>139.53</ele>
        <time>2017-12-14T12:53:17Z</time>
      </trkpt>
      <trkpt lat="44.4296" lon="4.81108">
        <ele>140.01</ele>
        <time>2017-12-14T12:53:31Z</time>
      </trkpt>
      <trkpt lat="44.4297" lon="4.81105">
        <ele>140.49</ele>
        <time>2017-12-14T12:53:43Z</time>
      </trkpt>
      <trkpt lat="44.42979" lon="4.81109">
        <ele>140.97</ele>
        <time>2017-12-14T12:53:58Z</time>
      </trkpt>
      <trkpt lat="44.42993" lon="4.81109">
        <ele>141.93</ele>
        <time>2017-12-14T12:54:12Z</time>
      </trkpt>
      <trkpt lat="44.43007" lon="4.81111">
        <ele>142.41</ele>
        <time>2017-12-14T12:54:24Z</time>
      </trkpt>
      <trkpt lat="44.43018" lon="4.81109">
        <ele>142.89</ele>
        <time>2017-12-14T12:54:36Z</time>
      </trkpt>
      <trkpt lat="44.4303" lon="4.811">
        <ele>143.85</ele>
        <time>2017-12-14T12:54:48Z</time>
      </trkpt>
      <trkpt lat="44.43043" lon="4.81093">
        <ele>143.85</ele>
        <time>2017-12-14T12:55:00Z</time>
      </trkpt>
      <trkpt lat="44.43058" lon="4.81099">
        <ele>144.82</ele>
        <time>2017-12-14T12:55:14Z</time>
      </trkpt>
      <trkpt lat="44.43063" lon="4.81116">
        <ele>146.26</ele>
        <time>2017-12-14T12:55:29Z</time>
      </trkpt>
      <trkpt lat="44.43055" lon="4.81132">
        <ele>147.7</ele>
        <time>2017-12-14T12:55:42Z</time>
      </trkpt>
      <trkpt lat="44.43054" lon="4.81135">
        <ele>148.18</ele>
        <time>2017-12-14T12:55:44Z</time>
      </trkpt>
      <trkpt lat="44.43044" lon="4.8115">
        <ele>149.62</ele>
        <time>2017-12-14T12:55:58Z</time>
      </trkpt>
      <trkpt lat="44.43043" lon="4.81151">
        <ele>149.62</ele>
        <time>2017-12-14T12:55:59Z</time>
      </trkpt>
      <trkpt lat="44.43037" lon="4.81156">
        <ele>150.58</ele>
        <time>2017-12-14T12:56:07Z</time>
      </trkpt>
      <trkpt lat="44.43024" lon="4.81163">
        <ele>152.03</ele>
        <time>2017-12-14T12:56:20Z</time>
      </trkpt>
      <trkpt lat="44.43015" lon="4.81164">
        <ele>153.47</ele>
        <time>2017-12-14T12:56:32Z</time>
      </trkpt>
      <trkpt lat="44.43011" lon="4.81166">
        <ele>153.95</ele>
        <time>2017-12-14T12:56:37Z</time>
      </trkpt>
      <trkpt lat="44.43" lon="4.81172">
        <ele>155.39</ele>
        <time>2017-12-14T12:56:50Z</time>
      </trkpt>
      <trkpt lat="44.43001" lon="4.81187">
        <ele>157.79</ele>
        <time>2017-12-14T12:57:06Z</time>
      </trkpt>
      <trkpt lat="44.43004" lon="4.81199">
        <ele>159.24</ele>
        <time>2017-12-14T12:57:20Z</time>
      </trkpt>
      <trkpt lat="44.43005" lon="4.8121">
        <ele>160.2</ele>
        <time>2017-12-14T12:57:30Z</time>
      </trkpt>
      <trkpt lat="44.43013" lon="4.81225">
        <ele>161.16</ele>
        <time>2017-12-14T12:57:43Z</time>
      </trkpt>
      <trkpt lat="44.43015" lon="4.81228">
        <ele>161.16</ele>
        <time>2017-12-14T12:57:58Z</time>
      </trkpt>
      <trkpt lat="44.43015" lon="4.81229">
        <ele>161.16</ele>
        <time>2017-12-14T12:58:13Z</time>
      </trkpt>
      <trkpt lat="44.43015" lon="4.81229">
        <ele>161.16</ele>
        <time>2017-12-14T12:58:36Z</time>
      </trkpt>
      <trkpt lat="44.43015" lon="4.81229">
        <ele>160.68</ele>
        <time>2017-12-14T12:58:59Z</time>
      </trkpt>
      <trkpt lat="44.43016" lon="4.81238">
        <ele>161.16</ele>
        <time>2017-12-14T12:59:13Z</time>
      </trkpt>
      <trkpt lat="44.43016" lon="4.81255">
        <ele>162.6</ele>
        <time>2017-12-14T12:59:27Z</time>
      </trkpt>
      <trkpt lat="44.43016" lon="4.81274">
        <ele>163.56</ele>
        <time>2017-12-14T12:59:41Z</time>
      </trkpt>
      <trkpt lat="44.43015" lon="4.81276">
        <ele>163.56</ele>
        <time>2017-12-14T12:59:42Z</time>
      </trkpt>
      <trkpt lat="44.43014" lon="4.81297">
        <ele>164.52</ele>
        <time>2017-12-14T12:59:58Z</time>
      </trkpt>
      <trkpt lat="44.43016" lon="4.81312">
        <ele>165</ele>
        <time>2017-12-14T13:00:10Z</time>
      </trkpt>
      <trkpt lat="44.4302" lon="4.81329">
        <ele>164.52</ele>
        <time>2017-12-14T13:00:23Z</time>
      </trkpt>
      <trkpt lat="44.43026" lon="4.81345">
        <ele>164.52</ele>
        <time>2017-12-14T13:00:38Z</time>
      </trkpt>
      <trkpt lat="44.43038" lon="4.81363">
        <ele>164.04</ele>
        <time>2017-12-14T13:00:53Z</time>
      </trkpt>
      <trkpt lat="44.43042" lon="4.81381">
        <ele>164.04</ele>
        <time>2017-12-14T13:01:07Z</time>
      </trkpt>
      <trkpt lat="44.43044" lon="4.81398">
        <ele>164.52</ele>
        <time>2017-12-14T13:01:20Z</time>
      </trkpt>
      <trkpt lat="44.43045" lon="4.81416">
        <ele>165.48</ele>
        <time>2017-12-14T13:01:35Z</time>
      </trkpt>
      <trkpt lat="44.43054" lon="4.81427">
        <ele>166.45</ele>
        <time>2017-12-14T13:01:49Z</time>
      </trkpt>
      <trkpt lat="44.43061" lon="4.81439">
        <ele>167.89</ele>
        <time>2017-12-14T13:02:04Z</time>
      </trkpt>
      <trkpt lat="44.4307" lon="4.81454">
        <ele>168.37</ele>
        <time>2017-12-14T13:02:20Z</time>
      </trkpt>
      <trkpt lat="44.43079" lon="4.81469">
        <ele>168.37</ele>
        <time>2017-12-14T13:02:36Z</time>
      </trkpt>
      <trkpt lat="44.43085" lon="4.81483">
        <ele>167.89</ele>
        <time>2017-12-14T13:02:52Z</time>
      </trkpt>
      <trkpt lat="44.43088" lon="4.81486">
        <ele>167.89</ele>
        <time>2017-12-14T13:03:09Z</time>
      </trkpt>
      <trkpt lat="44.43092" lon="4.81494">
        <ele>167.41</ele>
        <time>2017-12-14T13:03:23Z</time>
      </trkpt>
      <trkpt lat="44.43092" lon="4.81513">
        <ele>167.41</ele>
        <time>2017-12-14T13:03:38Z</time>
      </trkpt>
      <trkpt lat="44.43097" lon="4.81528">
        <ele>167.89</ele>
        <time>2017-12-14T13:03:51Z</time>
      </trkpt>
      <trkpt lat="44.43109" lon="4.81539">
        <ele>167.89</ele>
        <time>2017-12-14T13:04:05Z</time>
      </trkpt>
      <trkpt lat="44.43124" lon="4.81543">
        <ele>167.89</ele>
        <time>2017-12-14T13:04:17Z</time>
      </trkpt>
      <trkpt lat="44.43134" lon="4.81546">
        <ele>168.85</ele>
        <time>2017-12-14T13:04:30Z</time>
      </trkpt>
      <trkpt lat="44.43143" lon="4.81545">
        <ele>169.33</ele>
        <time>2017-12-14T13:04:43Z</time>
      </trkpt>
      <trkpt lat="44.43154" lon="4.81546">
        <ele>170.29</ele>
        <time>2017-12-14T13:04:55Z</time>
      </trkpt>
      <trkpt lat="44.43168" lon="4.81542">
        <ele>171.25</ele>
        <time>2017-12-14T13:05:09Z</time>
      </trkpt>
      <trkpt lat="44.43177" lon="4.81539">
        <ele>172.69</ele>
        <time>2017-12-14T13:05:23Z</time>
      </trkpt>
      <trkpt lat="44.4319" lon="4.81538">
        <ele>173.66</ele>
        <time>2017-12-14T13:05:37Z</time>
      </trkpt>
      <trkpt lat="44.43202" lon="4.81536">
        <ele>174.62</ele>
        <time>2017-12-14T13:05:51Z</time>
      </trkpt>
      <trkpt lat="44.43206" lon="4.81537">
        <ele>175.58</ele>
        <time>2017-12-14T13:06:02Z</time>
      </trkpt>
      <trkpt lat="44.43215" lon="4.81538">
        <ele>176.06</ele>
        <time>2017-12-14T13:06:15Z</time>
      </trkpt>
      <trkpt lat="44.4323" lon="4.81538">
        <ele>176.54</ele>
        <time>2017-12-14T13:06:28Z</time>
      </trkpt>
      <trkpt lat="44.43242" lon="4.81534">
        <ele>177.02</ele>
        <time>2017-12-14T13:06:40Z</time>
      </trkpt>
      <trkpt lat="44.43255" lon="4.81527">
        <ele>177.98</ele>
        <time>2017-12-14T13:06:53Z</time>
      </trkpt>
      <trkpt lat="44.43262" lon="4.81529">
        <ele>179.42</ele>
        <time>2017-12-14T13:07:09Z</time>
      </trkpt>
      <trkpt lat="44.43274" lon="4.81528">
        <ele>179.9</ele>
        <time>2017-12-14T13:07:22Z</time>
      </trkpt>
      <trkpt lat="44.43292" lon="4.81524">
        <ele>179.9</ele>
        <time>2017-12-14T13:07:35Z</time>
      </trkpt>
      <trkpt lat="44.43305" lon="4.81522">
        <ele>180.38</ele>
        <time>2017-12-14T13:07:50Z</time>
      </trkpt>
      <trkpt lat="44.43313" lon="4.81522">
        <ele>180.38</ele>
        <time>2017-12-14T13:08:03Z</time>
      </trkpt>
      <trkpt lat="44.43319" lon="4.81524">
        <ele>180.38</ele>
        <time>2017-12-14T13:08:17Z</time>
      </trkpt>
      <trkpt lat="44.43328" lon="4.81525">
        <ele>180.38</ele>
        <time>2017-12-14T13:08:31Z</time>
      </trkpt>
      <trkpt lat="44.43332" lon="4.81526">
        <ele>180.38</ele>
        <time>2017-12-14T13:08:40Z</time>
      </trkpt>
      <trkpt lat="44.4335" lon="4.81529">
        <ele>180.38</ele>
        <time>2017-12-14T13:08:53Z</time>
      </trkpt>
      <trkpt lat="44.43361" lon="4.8154">
        <ele>180.87</ele>
        <time>2017-12-14T13:09:06Z</time>
      </trkpt>
      <trkpt lat="44.43362" lon="4.81547">
        <ele>182.31</ele>
        <time>2017-12-14T13:09:19Z</time>
      </trkpt>
      <trkpt lat="44.43355" lon="4.81551">
        <ele>182.79</ele>
        <time>2017-12-14T13:09:32Z</time>
      </trkpt>
      <trkpt lat="44.43349" lon="4.81555">
        <ele>183.75</ele>
        <time>2017-12-14T13:09:44Z</time>
      </trkpt>
      <trkpt lat="44.43336" lon="4.81561">
        <ele>184.71</ele>
        <time>2017-12-14T13:09:59Z</time>
      </trkpt>
      <trkpt lat="44.4333" lon="4.81564">
        <ele>185.67</ele>
        <time>2017-12-14T13:10:13Z</time>
      </trkpt>
      <trkpt lat="44.43321" lon="4.81569">
        <ele>186.63</ele>
        <time>2017-12-14T13:10:26Z</time>
      </trkpt>
      <trkpt lat="44.43301" lon="4.81601">
        <ele>186.63</ele>
        <time>2017-12-14T13:14:19Z</time>
      </trkpt>
      <trkpt lat="44.43303" lon="4.81602">
        <ele>187.11</ele>
        <time>2017-12-14T13:14:20Z</time>
      </trkpt>
      <trkpt lat="44.43317" lon="4.81599">
        <ele>187.11</ele>
        <time>2017-12-14T13:14:34Z</time>
      </trkpt>
      <trkpt lat="44.43325" lon="4.81591">
        <ele>188.08</ele>
        <time>2017-12-14T13:14:47Z</time>
      </trkpt>
      <trkpt lat="44.4334" lon="4.81585">
        <ele>188.08</ele>
        <time>2017-12-14T13:15:03Z</time>
      </trkpt>
      <trkpt lat="44.43348" lon="4.81582">
        <ele>187.11</ele>
        <time>2017-12-14T13:15:18Z</time>
      </trkpt>
      <trkpt lat="44.43351" lon="4.81582">
        <ele>186.63</ele>
        <time>2017-12-14T13:15:21Z</time>
      </trkpt>
      <trkpt lat="44.43365" lon="4.81581">
        <ele>185.67</ele>
        <time>2017-12-14T13:15:37Z</time>
      </trkpt>
      <trkpt lat="44.43363" lon="4.81576">
        <ele>185.19</ele>
        <time>2017-12-14T13:15:49Z</time>
      </trkpt>
      <trkpt lat="44.43366" lon="4.81575">
        <ele>185.19</ele>
        <time>2017-12-14T13:15:52Z</time>
      </trkpt>
      <trkpt lat="44.43377" lon="4.81576">
        <ele>184.71</ele>
        <time>2017-12-14T13:16:05Z</time>
      </trkpt>
      <trkpt lat="44.4338" lon="4.81575">
        <ele>184.71</ele>
        <time>2017-12-14T13:16:11Z</time>
      </trkpt>
      <trkpt lat="44.43386" lon="4.81571">
        <ele>183.75</ele>
        <time>2017-12-14T13:16:16Z</time>
      </trkpt>
      <trkpt lat="44.43394" lon="4.81567">
        <ele>182.31</ele>
        <time>2017-12-14T13:16:24Z</time>
      </trkpt>
      <trkpt lat="44.434" lon="4.81565">
        <ele>181.35</ele>
        <time>2017-12-14T13:16:29Z</time>
      </trkpt>
      <trkpt lat="44.43411" lon="4.81568">
        <ele>180.87</ele>
        <time>2017-12-14T13:16:38Z</time>
      </trkpt>
      <trkpt lat="44.43427" lon="4.81567">
        <ele>179.9</ele>
        <time>2017-12-14T13:16:49Z</time>
      </trkpt>
      <trkpt lat="44.43429" lon="4.81566">
        <ele>179.9</ele>
        <time>2017-12-14T13:16:51Z</time>
      </trkpt>
      <trkpt lat="44.43435" lon="4.81571">
        <ele>179.9</ele>
        <time>2017-12-14T13:16:58Z</time>
      </trkpt>
      <trkpt lat="44.43437" lon="4.81572">
        <ele>179.9</ele>
        <time>2017-12-14T13:17:01Z</time>
      </trkpt>
      <trkpt lat="44.43446" lon="4.81577">
        <ele>180.38</ele>
        <time>2017-12-14T13:17:07Z</time>
      </trkpt>
      <trkpt lat="44.43457" lon="4.81582">
        <ele>180.38</ele>
        <time>2017-12-14T13:17:16Z</time>
      </trkpt>
      <trkpt lat="44.43468" lon="4.81582">
        <ele>180.38</ele>
        <time>2017-12-14T13:17:29Z</time>
      </trkpt>
      <trkpt lat="44.43469" lon="4.8158">
        <ele>180.38</ele>
        <time>2017-12-14T13:17:31Z</time>
      </trkpt>
      <trkpt lat="44.43475" lon="4.81579">
        <ele>179.9</ele>
        <time>2017-12-14T13:17:36Z</time>
      </trkpt>
      <trkpt lat="44.43481" lon="4.81579">
        <ele>179.9</ele>
        <time>2017-12-14T13:17:40Z</time>
      </trkpt>
      <trkpt lat="44.43485" lon="4.81579">
        <ele>179.9</ele>
        <time>2017-12-14T13:17:43Z</time>
      </trkpt>
      <trkpt lat="44.43496" lon="4.81577">
        <ele>179.42</ele>
        <time>2017-12-14T13:17:50Z</time>
      </trkpt>
      <trkpt lat="44.43498" lon="4.81577">
        <ele>179.42</ele>
        <time>2017-12-14T13:17:52Z</time>
      </trkpt>
      <trkpt lat="44.43511" lon="4.81581">
        <ele>178.46</ele>
        <time>2017-12-14T13:18:06Z</time>
      </trkpt>
      <trkpt lat="44.43527" lon="4.81584">
        <ele>178.46</ele>
        <time>2017-12-14T13:18:17Z</time>
      </trkpt>
      <trkpt lat="44.43536" lon="4.81581">
        <ele>178.46</ele>
        <time>2017-12-14T13:18:30Z</time>
      </trkpt>
      <trkpt lat="44.43546" lon="4.8157">
        <ele>179.42</ele>
        <time>2017-12-14T13:18:40Z</time>
      </trkpt>
      <trkpt lat="44.43548" lon="4.81567">
        <ele>179.9</ele>
        <time>2017-12-14T13:18:45Z</time>
      </trkpt>
      <trkpt lat="44.43556" lon="4.81563">
        <ele>180.38</ele>
        <time>2017-12-14T13:18:57Z</time>
      </trkpt>
      <trkpt lat="44.43556" lon="4.81563">
        <ele>180.87</ele>
        <time>2017-12-14T13:18:59Z</time>
      </trkpt>
      <trkpt lat="44.43562" lon="4.8156">
        <ele>181.35</ele>
        <time>2017-12-14T13:19:06Z</time>
      </trkpt>
      <trkpt lat="44.43569" lon="4.81564">
        <ele>182.31</ele>
        <time>2017-12-14T13:19:15Z</time>
      </trkpt>
      <trkpt lat="44.43581" lon="4.81575">
        <ele>183.27</ele>
        <time>2017-12-14T13:19:27Z</time>
      </trkpt>
      <trkpt lat="44.43593" lon="4.81592">
        <ele>184.23</ele>
        <time>2017-12-14T13:19:40Z</time>
      </trkpt>
      <trkpt lat="44.43605" lon="4.81609">
        <ele>185.19</ele>
        <time>2017-12-14T13:19:53Z</time>
      </trkpt>
      <trkpt lat="44.43612" lon="4.81614">
        <ele>185.19</ele>
        <time>2017-12-14T13:20:01Z</time>
      </trkpt>
      <trkpt lat="44.43617" lon="4.81614">
        <ele>185.19</ele>
        <time>2017-12-14T13:20:05Z</time>
      </trkpt>
      <trkpt lat="44.43633" lon="4.81614">
        <ele>185.19</ele>
        <time>2017-12-14T13:20:18Z</time>
      </trkpt>
      <trkpt lat="44.43639" lon="4.81613">
        <ele>185.19</ele>
        <time>2017-12-14T13:20:26Z</time>
      </trkpt>
      <trkpt lat="44.43644" lon="4.81613">
        <ele>185.67</ele>
        <time>2017-12-14T13:20:31Z</time>
      </trkpt>
      <trkpt lat="44.43654" lon="4.81613">
        <ele>186.15</ele>
        <time>2017-12-14T13:20:37Z</time>
      </trkpt>
      <trkpt lat="44.43666" lon="4.81611">
        <ele>187.11</ele>
        <time>2017-12-14T13:20:50Z</time>
      </trkpt>
      <trkpt lat="44.43673" lon="4.8161">
        <ele>187.59</ele>
        <time>2017-12-14T13:20:54Z</time>
      </trkpt>
      <trkpt lat="44.43677" lon="4.81609">
        <ele>187.59</ele>
        <time>2017-12-14T13:21:00Z</time>
      </trkpt>
      <trkpt lat="44.43679" lon="4.81608">
        <ele>188.08</ele>
        <time>2017-12-14T13:21:02Z</time>
      </trkpt>
      <trkpt lat="44.43695" lon="4.81601">
        <ele>188.56</ele>
        <time>2017-12-14T13:21:13Z</time>
      </trkpt>
      <trkpt lat="44.43696" lon="4.81602">
        <ele>189.04</ele>
        <time>2017-12-14T13:21:15Z</time>
      </trkpt>
      <trkpt lat="44.43701" lon="4.81601">
        <ele>188.56</ele>
        <time>2017-12-14T13:21:19Z</time>
      </trkpt>
      <trkpt lat="44.4372" lon="4.816">
        <ele>189.04</ele>
        <time>2017-12-14T13:21:33Z</time>
      </trkpt>
      <trkpt lat="44.43728" lon="4.81601">
        <ele>188.56</ele>
        <time>2017-12-14T13:21:44Z</time>
      </trkpt>
      <trkpt lat="44.43729" lon="4.81601">
        <ele>188.08</ele>
        <time>2017-12-14T13:21:45Z</time>
      </trkpt>
      <trkpt lat="44.4374" lon="4.81602">
        <ele>187.11</ele>
        <time>2017-12-14T13:21:55Z</time>
      </trkpt>
      <trkpt lat="44.43742" lon="4.81603">
        <ele>187.59</ele>
        <time>2017-12-14T13:21:57Z</time>
      </trkpt>
      <trkpt lat="44.43751" lon="4.81608">
        <ele>186.15</ele>
        <time>2017-12-14T13:22:08Z</time>
      </trkpt>
      <trkpt lat="44.43759" lon="4.81617">
        <ele>185.67</ele>
        <time>2017-12-14T13:22:19Z</time>
      </trkpt>
      <trkpt lat="44.43764" lon="4.81616">
        <ele>185.19</ele>
        <time>2017-12-14T13:22:27Z</time>
      </trkpt>
      <trkpt lat="44.43774" lon="4.81613">
        <ele>184.71</ele>
        <time>2017-12-14T13:22:39Z</time>
      </trkpt>
      <trkpt lat="44.43783" lon="4.81611">
        <ele>184.71</ele>
        <time>2017-12-14T13:22:49Z</time>
      </trkpt>
      <trkpt lat="44.43791" lon="4.81611">
        <ele>184.23</ele>
        <time>2017-12-14T13:22:58Z</time>
      </trkpt>
      <trkpt lat="44.43801" lon="4.81611">
        <ele>184.23</ele>
        <time>2017-12-14T13:23:07Z</time>
      </trkpt>
      <trkpt lat="44.43805" lon="4.81612">
        <ele>183.75</ele>
        <time>2017-12-14T13:23:10Z</time>
      </trkpt>
      <trkpt lat="44.43819" lon="4.81614">
        <ele>183.75</ele>
        <time>2017-12-14T13:23:22Z</time>
      </trkpt>
      <trkpt lat="44.43823" lon="4.81615">
        <ele>183.75</ele>
        <time>2017-12-14T13:23:26Z</time>
      </trkpt>
      <trkpt lat="44.43834" lon="4.81617">
        <ele>183.27</ele>
        <time>2017-12-14T13:23:37Z</time>
      </trkpt>
      <trkpt lat="44.43845" lon="4.81611">
        <ele>183.27</ele>
        <time>2017-12-14T13:23:48Z</time>
      </trkpt>
      <trkpt lat="44.43847" lon="4.8161">
        <ele>183.27</ele>
        <time>2017-12-14T13:23:50Z</time>
      </trkpt>
      <trkpt lat="44.43854" lon="4.81607">
        <ele>183.27</ele>
        <time>2017-12-14T13:23:55Z</time>
      </trkpt>
      <trkpt lat="44.4386" lon="4.81603">
        <ele>183.27</ele>
        <time>2017-12-14T13:24:03Z</time>
      </trkpt>
      <trkpt lat="44.43865" lon="4.81599">
        <ele>182.79</ele>
        <time>2017-12-14T13:24:10Z</time>
      </trkpt>
      <trkpt lat="44.43875" lon="4.816">
        <ele>182.79</ele>
        <time>2017-12-14T13:24:21Z</time>
      </trkpt>
      <trkpt lat="44.43883" lon="4.816">
        <ele>182.79</ele>
        <time>2017-12-14T13:24:28Z</time>
      </trkpt>
      <trkpt lat="44.43886" lon="4.816">
        <ele>182.79</ele>
        <time>2017-12-14T13:24:31Z</time>
      </trkpt>
      <trkpt lat="44.43895" lon="4.816">
        <ele>181.35</ele>
        <time>2017-12-14T13:24:42Z</time>
      </trkpt>
      <trkpt lat="44.43903" lon="4.81598">
        <ele>181.35</ele>
        <time>2017-12-14T13:24:50Z</time>
      </trkpt>
      <trkpt lat="44.43914" lon="4.816">
        <ele>181.35</ele>
        <time>2017-12-14T13:24:59Z</time>
      </trkpt>
      <trkpt lat="44.43922" lon="4.81598">
        <ele>180.87</ele>
        <time>2017-12-14T13:25:07Z</time>
      </trkpt>
      <trkpt lat="44.43925" lon="4.81598">
        <ele>180.87</ele>
        <time>2017-12-14T13:25:10Z</time>
      </trkpt>
      <trkpt lat="44.43939" lon="4.81604">
        <ele>180.38</ele>
        <time>2017-12-14T13:25:23Z</time>
      </trkpt>
      <trkpt lat="44.43952" lon="4.81612">
        <ele>180.38</ele>
        <time>2017-12-14T13:25:36Z</time>
      </trkpt>
      <trkpt lat="44.43963" lon="4.81622">
        <ele>180.87</ele>
        <time>2017-12-14T13:25:49Z</time>
      </trkpt>
      <trkpt lat="44.43973" lon="4.8163">
        <ele>181.35</ele>
        <time>2017-12-14T13:26:02Z</time>
      </trkpt>
      <trkpt lat="44.43975" lon="4.81631">
        <ele>181.83</ele>
        <time>2017-12-14T13:26:04Z</time>
      </trkpt>
      <trkpt lat="44.43986" lon="4.81638">
        <ele>182.31</ele>
        <time>2017-12-14T13:26:15Z</time>
      </trkpt>
      <trkpt lat="44.43994" lon="4.81642">
        <ele>182.79</ele>
        <time>2017-12-14T13:26:27Z</time>
      </trkpt>
      <trkpt lat="44.44" lon="4.81645">
        <ele>183.75</ele>
        <time>2017-12-14T13:26:35Z</time>
      </trkpt>
      <trkpt lat="44.44002" lon="4.81646">
        <ele>183.27</ele>
        <time>2017-12-14T13:26:37Z</time>
      </trkpt>
      <trkpt lat="44.44017" lon="4.81648">
        <ele>183.75</ele>
        <time>2017-12-14T13:26:49Z</time>
      </trkpt>
      <trkpt lat="44.4402" lon="4.81651">
        <ele>183.75</ele>
        <time>2017-12-14T13:26:54Z</time>
      </trkpt>
      <trkpt lat="44.44025" lon="4.81653">
        <ele>184.23</ele>
        <time>2017-12-14T13:26:58Z</time>
      </trkpt>
      <trkpt lat="44.44033" lon="4.81655">
        <ele>184.23</ele>
        <time>2017-12-14T13:27:06Z</time>
      </trkpt>
      <trkpt lat="44.44036" lon="4.81656">
        <ele>184.23</ele>
        <time>2017-12-14T13:27:08Z</time>
      </trkpt>
      <trkpt lat="44.44043" lon="4.81655">
        <ele>184.71</ele>
        <time>2017-12-14T13:27:15Z</time>
      </trkpt>
      <trkpt lat="44.44051" lon="4.81656">
        <ele>184.71</ele>
        <time>2017-12-14T13:27:23Z</time>
      </trkpt>
      <trkpt lat="44.44057" lon="4.81659">
        <ele>185.67</ele>
        <time>2017-12-14T13:27:31Z</time>
      </trkpt>
      <trkpt lat="44.44065" lon="4.81664">
        <ele>186.15</ele>
        <time>2017-12-14T13:27:40Z</time>
      </trkpt>
      <trkpt lat="44.4407" lon="4.81667">
        <ele>186.63</ele>
        <time>2017-12-14T13:27:45Z</time>
      </trkpt>
      <trkpt lat="44.44076" lon="4.81671">
        <ele>187.11</ele>
        <time>2017-12-14T13:27:51Z</time>
      </trkpt>
      <trkpt lat="44.44082" lon="4.81677">
        <ele>187.59</ele>
        <time>2017-12-14T13:27:59Z</time>
      </trkpt>
      <trkpt lat="44.44089" lon="4.81684">
        <ele>188.08</ele>
        <time>2017-12-14T13:28:08Z</time>
      </trkpt>
      <trkpt lat="44.44097" lon="4.81688">
        <ele>189.04</ele>
        <time>2017-12-14T13:28:15Z</time>
      </trkpt>
      <trkpt lat="44.44099" lon="4.8169">
        <ele>189.04</ele>
        <time>2017-12-14T13:28:17Z</time>
      </trkpt>
      <trkpt lat="44.4411" lon="4.81693">
        <ele>189.04</ele>
        <time>2017-12-14T13:28:29Z</time>
      </trkpt>
      <trkpt lat="44.4412" lon="4.81701">
        <ele>189.52</ele>
        <time>2017-12-14T13:28:39Z</time>
      </trkpt>
      <trkpt lat="44.44129" lon="4.81708">
        <ele>190</ele>
        <time>2017-12-14T13:28:48Z</time>
      </trkpt>
      <trkpt lat="44.4414" lon="4.81711">
        <ele>190.48</ele>
        <time>2017-12-14T13:28:59Z</time>
      </trkpt>
      <trkpt lat="44.44152" lon="4.81721">
        <ele>190.96</ele>
        <time>2017-12-14T13:29:13Z</time>
      </trkpt>
      <trkpt lat="44.44153" lon="4.81723">
        <ele>190.96</ele>
        <time>2017-12-14T13:29:17Z</time>
      </trkpt>
      <trkpt lat="44.44161" lon="4.81729">
        <ele>191.92</ele>
        <time>2017-12-14T13:29:27Z</time>
      </trkpt>
      <trkpt lat="44.44166" lon="4.81731">
        <ele>192.88</ele>
        <time>2017-12-14T13:29:33Z</time>
      </trkpt>
      <trkpt lat="44.44172" lon="4.81736">
        <ele>193.36</ele>
        <time>2017-12-14T13:29:40Z</time>
      </trkpt>
      <trkpt lat="44.44182" lon="4.81749">
        <ele>194.32</ele>
        <time>2017-12-14T13:29:52Z</time>
      </trkpt>
      <trkpt lat="44.44185" lon="4.81751">
        <ele>194.8</ele>
        <time>2017-12-14T13:30:03Z</time>
      </trkpt>
      <trkpt lat="44.44186" lon="4.81753">
        <ele>195.28</ele>
        <time>2017-12-14T13:30:25Z</time>
      </trkpt>
      <trkpt lat="44.44185" lon="4.81752">
        <ele>195.28</ele>
        <time>2017-12-14T13:30:54Z</time>
      </trkpt>
      <trkpt lat="44.44185" lon="4.81752">
        <ele>195.77</ele>
        <time>2017-12-14T13:31:25Z</time>
      </trkpt>
      <trkpt lat="44.44186" lon="4.81753">
        <ele>196.25</ele>
        <time>2017-12-14T13:31:52Z</time>
      </trkpt>
      <trkpt lat="44.44193" lon="4.81756">
        <ele>196.25</ele>
        <time>2017-12-14T13:31:58Z</time>
      </trkpt>
      <trkpt lat="44.44199" lon="4.8176">
        <ele>196.25</ele>
        <time>2017-12-14T13:32:06Z</time>
      </trkpt>
      <trkpt lat="44.44207" lon="4.81766">
        <ele>195.28</ele>
        <time>2017-12-14T13:32:18Z</time>
      </trkpt>
      <trkpt lat="44.44207" lon="4.81766">
        <ele>195.77</ele>
        <time>2017-12-14T13:32:19Z</time>
      </trkpt>
      <trkpt lat="44.44216" lon="4.81774">
        <ele>195.77</ele>
        <time>2017-12-14T13:32:28Z</time>
      </trkpt>
      <trkpt lat="44.44226" lon="4.81784">
        <ele>195.77</ele>
        <time>2017-12-14T13:32:39Z</time>
      </trkpt>
      <trkpt lat="44.44229" lon="4.81785">
        <ele>195.77</ele>
        <time>2017-12-14T13:32:44Z</time>
      </trkpt>
      <trkpt lat="44.44237" lon="4.81791">
        <ele>195.77</ele>
        <time>2017-12-14T13:32:57Z</time>
      </trkpt>
      <trkpt lat="44.44243" lon="4.81795">
        <ele>195.77</ele>
        <time>2017-12-14T13:33:04Z</time>
      </trkpt>
      <trkpt lat="44.44247" lon="4.81797">
        <ele>195.77</ele>
        <time>2017-12-14T13:33:11Z</time>
      </trkpt>
      <trkpt lat="44.4425" lon="4.81798">
        <ele>196.25</ele>
        <time>2017-12-14T13:33:13Z</time>
      </trkpt>
      <trkpt lat="44.44253" lon="4.81803">
        <ele>196.73</ele>
        <time>2017-12-14T13:33:17Z</time>
      </trkpt>
      <trkpt lat="44.44256" lon="4.81806">
        <ele>196.73</ele>
        <time>2017-12-14T13:33:20Z</time>
      </trkpt>
      <trkpt lat="44.44261" lon="4.81809">
        <ele>197.21</ele>
        <time>2017-12-14T13:33:26Z</time>
      </trkpt>
      <trkpt lat="44.44274" lon="4.81818">
        <ele>197.69</ele>
        <time>2017-12-14T13:33:39Z</time>
      </trkpt>
      <trkpt lat="44.44274" lon="4.81822">
        <ele>198.65</ele>
        <time>2017-12-14T13:33:41Z</time>
      </trkpt>
      <trkpt lat="44.44275" lon="4.81828">
        <ele>198.65</ele>
        <time>2017-12-14T13:33:46Z</time>
      </trkpt>
      <trkpt lat="44.44276" lon="4.8184">
        <ele>199.61</ele>
        <time>2017-12-14T13:33:54Z</time>
      </trkpt>
      <trkpt lat="44.4428" lon="4.81853">
        <ele>200.09</ele>
        <time>2017-12-14T13:34:05Z</time>
      </trkpt>
      <trkpt lat="44.44281" lon="4.81855">
        <ele>200.57</ele>
        <time>2017-12-14T13:34:07Z</time>
      </trkpt>
      <trkpt lat="44.44283" lon="4.81858">
        <ele>200.57</ele>
        <time>2017-12-14T13:34:09Z</time>
      </trkpt>
      <trkpt lat="44.4429" lon="4.81863">
        <ele>200.57</ele>
        <time>2017-12-14T13:34:19Z</time>
      </trkpt>
      <trkpt lat="44.44298" lon="4.81872">
        <ele>200.57</ele>
        <time>2017-12-14T13:34:30Z</time>
      </trkpt>
      <trkpt lat="44.44303" lon="4.81875">
        <ele>200.09</ele>
        <time>2017-12-14T13:34:40Z</time>
      </trkpt>
      <trkpt lat="44.44305" lon="4.81876">
        <ele>200.09</ele>
        <time>2017-12-14T13:34:47Z</time>
      </trkpt>
      <trkpt lat="44.44313" lon="4.81886">
        <ele>200.57</ele>
        <time>2017-12-14T13:34:58Z</time>
      </trkpt>
      <trkpt lat="44.44318" lon="4.81897">
        <ele>200.57</ele>
        <time>2017-12-14T13:35:10Z</time>
      </trkpt>
      <trkpt lat="44.44321" lon="4.81907">
        <ele>201.53</ele>
        <time>2017-12-14T13:35:19Z</time>
      </trkpt>
      <trkpt lat="44.44325" lon="4.81918">
        <ele>202.01</ele>
        <time>2017-12-14T13:35:28Z</time>
      </trkpt>
      <trkpt lat="44.44326" lon="4.8193">
        <ele>202.49</ele>
        <time>2017-12-14T13:35:38Z</time>
      </trkpt>
      <trkpt lat="44.44325" lon="4.81939">
        <ele>203.94</ele>
        <time>2017-12-14T13:35:47Z</time>
      </trkpt>
      <trkpt lat="44.44325" lon="4.81948">
        <ele>203.94</ele>
        <time>2017-12-14T13:35:59Z</time>
      </trkpt>
      <trkpt lat="44.44324" lon="4.81959">
        <ele>205.38</ele>
        <time>2017-12-14T13:36:08Z</time>
      </trkpt>
      <trkpt lat="44.44323" lon="4.81966">
        <ele>205.86</ele>
        <time>2017-12-14T13:36:16Z</time>
      </trkpt>
      <trkpt lat="44.44324" lon="4.81976">
        <ele>206.82</ele>
        <time>2017-12-14T13:36:26Z</time>
      </trkpt>
      <trkpt lat="44.44324" lon="4.81985">
        <ele>207.78</ele>
        <time>2017-12-14T13:36:36Z</time>
      </trkpt>
      <trkpt lat="44.44324" lon="4.81988">
        <ele>208.26</ele>
        <time>2017-12-14T13:36:38Z</time>
      </trkpt>
      <trkpt lat="44.44322" lon="4.82003">
        <ele>209.22</ele>
        <time>2017-12-14T13:36:50Z</time>
      </trkpt>
      <trkpt lat="44.44322" lon="4.82013">
        <ele>209.7</ele>
        <time>2017-12-14T13:37:01Z</time>
      </trkpt>
      <trkpt lat="44.44321" lon="4.82024">
        <ele>210.67</ele>
        <time>2017-12-14T13:37:15Z</time>
      </trkpt>
      <trkpt lat="44.44322" lon="4.82033">
        <ele>211.15</ele>
        <time>2017-12-14T13:37:20Z</time>
      </trkpt>
      <trkpt lat="44.44321" lon="4.82043">
        <ele>212.11</ele>
        <time>2017-12-14T13:37:26Z</time>
      </trkpt>
      <trkpt lat="44.44322" lon="4.82053">
        <ele>213.55</ele>
        <time>2017-12-14T13:37:36Z</time>
      </trkpt>
      <trkpt lat="44.44323" lon="4.82064">
        <ele>214.51</ele>
        <time>2017-12-14T13:37:45Z</time>
      </trkpt>
      <trkpt lat="44.44322" lon="4.82074">
        <ele>215.47</ele>
        <time>2017-12-14T13:37:53Z</time>
      </trkpt>
      <trkpt lat="44.44321" lon="4.82084">
        <ele>216.91</ele>
        <time>2017-12-14T13:38:04Z</time>
      </trkpt>
      <trkpt lat="44.44321" lon="4.82092">
        <ele>217.88</ele>
        <time>2017-12-14T13:38:14Z</time>
      </trkpt>
      <trkpt lat="44.44321" lon="4.82102">
        <ele>219.32</ele>
        <time>2017-12-14T13:38:24Z</time>
      </trkpt>
      <trkpt lat="44.44321" lon="4.82111">
        <ele>219.8</ele>
        <time>2017-12-14T13:38:33Z</time>
      </trkpt>
      <trkpt lat="44.44323" lon="4.82122">
        <ele>221.24</ele>
        <time>2017-12-14T13:38:43Z</time>
      </trkpt>
      <trkpt lat="44.44324" lon="4.82132">
        <ele>221.72</ele>
        <time>2017-12-14T13:38:55Z</time>
      </trkpt>
      <trkpt lat="44.44326" lon="4.8214">
        <ele>223.16</ele>
        <time>2017-12-14T13:39:06Z</time>
      </trkpt>
      <trkpt lat="44.44326" lon="4.82148">
        <ele>225.09</ele>
        <time>2017-12-14T13:39:18Z</time>
      </trkpt>
      <trkpt lat="44.44326" lon="4.82157">
        <ele>226.53</ele>
        <time>2017-12-14T13:39:29Z</time>
      </trkpt>
      <trkpt lat="44.44325" lon="4.82171">
        <ele>227.01</ele>
        <time>2017-12-14T13:39:39Z</time>
      </trkpt>
      <trkpt lat="44.44323" lon="4.82182">
        <ele>228.45</ele>
        <time>2017-12-14T13:39:50Z</time>
      </trkpt>
      <trkpt lat="44.44323" lon="4.82189">
        <ele>228.93</ele>
        <time>2017-12-14T13:40:00Z</time>
      </trkpt>
      <trkpt lat="44.44318" lon="4.82206">
        <ele>230.37</ele>
        <time>2017-12-14T13:40:13Z</time>
      </trkpt>
      <trkpt lat="44.44316" lon="4.82216">
        <ele>230.37</ele>
        <time>2017-12-14T13:40:21Z</time>
      </trkpt>
      <trkpt lat="44.44312" lon="4.82227">
        <ele>231.81</ele>
        <time>2017-12-14T13:40:33Z</time>
      </trkpt>
      <trkpt lat="44.44309" lon="4.82233">
        <ele>232.3</ele>
        <time>2017-12-14T13:40:45Z</time>
      </trkpt>
      <trkpt lat="44.44307" lon="4.82232">
        <ele>232.3</ele>
        <time>2017-12-14T13:41:07Z</time>
      </trkpt>
      <trkpt lat="44.44307" lon="4.82234">
        <ele>232.3</ele>
        <time>2017-12-14T13:41:36Z</time>
      </trkpt>
      <trkpt lat="44.44307" lon="4.82233">
        <ele>232.78</ele>
        <time>2017-12-14T13:42:01Z</time>
      </trkpt>
      <trkpt lat="44.44307" lon="4.82233">
        <ele>232.78</ele>
        <time>2017-12-14T13:42:28Z</time>
      </trkpt>
      <trkpt lat="44.44307" lon="4.82233">
        <ele>232.78</ele>
        <time>2017-12-14T13:42:56Z</time>
      </trkpt>
      <trkpt lat="44.44307" lon="4.82232">
        <ele>232.78</ele>
        <time>2017-12-14T13:43:20Z</time>
      </trkpt>
      <trkpt lat="44.44307" lon="4.82233">
        <ele>233.26</ele>
        <time>2017-12-14T13:43:49Z</time>
      </trkpt>
      <trkpt lat="44.44307" lon="4.82233">
        <ele>233.26</ele>
        <time>2017-12-14T13:44:14Z</time>
      </trkpt>
      <trkpt lat="44.44308" lon="4.82234">
        <ele>233.26</ele>
        <time>2017-12-14T13:44:40Z</time>
      </trkpt>
      <trkpt lat="44.44308" lon="4.82234">
        <ele>233.74</ele>
        <time>2017-12-14T13:45:00Z</time>
      </trkpt>
      <trkpt lat="44.44307" lon="4.82234">
        <ele>233.74</ele>
        <time>2017-12-14T13:45:31Z</time>
      </trkpt>
      <trkpt lat="44.44307" lon="4.82235">
        <ele>233.74</ele>
        <time>2017-12-14T13:45:54Z</time>
      </trkpt>
      <trkpt lat="44.44307" lon="4.82241">
        <ele>234.22</ele>
        <time>2017-12-14T13:46:19Z</time>
      </trkpt>
      <trkpt lat="44.44307" lon="4.82248">
        <ele>234.22</ele>
        <time>2017-12-14T13:46:29Z</time>
      </trkpt>
      <trkpt lat="44.44307" lon="4.82262">
        <ele>234.7</ele>
        <time>2017-12-14T13:46:40Z</time>
      </trkpt>
      <trkpt lat="44.44302" lon="4.82272">
        <ele>235.18</ele>
        <time>2017-12-14T13:46:50Z</time>
      </trkpt>
      <trkpt lat="44.443" lon="4.82286">
        <ele>235.18</ele>
        <time>2017-12-14T13:47:03Z</time>
      </trkpt>
      <trkpt lat="44.44299" lon="4.82293">
        <ele>235.66</ele>
        <time>2017-12-14T13:47:15Z</time>
      </trkpt>
      <trkpt lat="44.44296" lon="4.82308">
        <ele>235.18</ele>
        <time>2017-12-14T13:47:26Z</time>
      </trkpt>
      <trkpt lat="44.44295" lon="4.82311">
        <ele>235.18</ele>
        <time>2017-12-14T13:47:29Z</time>
      </trkpt>
      <trkpt lat="44.44294" lon="4.82327">
        <ele>235.66</ele>
        <time>2017-12-14T13:47:42Z</time>
      </trkpt>
      <trkpt lat="44.44294" lon="4.82333">
        <ele>235.66</ele>
        <time>2017-12-14T13:47:47Z</time>
      </trkpt>
      <trkpt lat="44.44293" lon="4.82345">
        <ele>235.66</ele>
        <time>2017-12-14T13:47:55Z</time>
      </trkpt>
      <trkpt lat="44.44293" lon="4.82354">
        <ele>236.14</ele>
        <time>2017-12-14T13:48:02Z</time>
      </trkpt>
      <trkpt lat="44.44293" lon="4.8237">
        <ele>237.1</ele>
        <time>2017-12-14T13:48:14Z</time>
      </trkpt>
      <trkpt lat="44.44293" lon="4.82382">
        <ele>238.54</ele>
        <time>2017-12-14T13:48:24Z</time>
      </trkpt>
      <trkpt lat="44.44291" lon="4.82393">
        <ele>239.51</ele>
        <time>2017-12-14T13:48:33Z</time>
      </trkpt>
      <trkpt lat="44.4429" lon="4.82395">
        <ele>239.51</ele>
        <time>2017-12-14T13:48:34Z</time>
      </trkpt>
      <trkpt lat="44.4429" lon="4.82399">
        <ele>239.99</ele>
        <time>2017-12-14T13:48:37Z</time>
      </trkpt>
      <trkpt lat="44.44288" lon="4.82419">
        <ele>241.43</ele>
        <time>2017-12-14T13:48:50Z</time>
      </trkpt>
      <trkpt lat="44.44289" lon="4.82428">
        <ele>241.43</ele>
        <time>2017-12-14T13:48:56Z</time>
      </trkpt>
      <trkpt lat="44.44288" lon="4.82431">
        <ele>242.39</ele>
        <time>2017-12-14T13:49:00Z</time>
      </trkpt>
      <trkpt lat="44.44292" lon="4.82447">
        <ele>243.35</ele>
        <time>2017-12-14T13:49:11Z</time>
      </trkpt>
      <trkpt lat="44.44295" lon="4.8246">
        <ele>243.83</ele>
        <time>2017-12-14T13:49:21Z</time>
      </trkpt>
      <trkpt lat="44.443" lon="4.82471">
        <ele>244.31</ele>
        <time>2017-12-14T13:49:32Z</time>
      </trkpt>
      <trkpt lat="44.44304" lon="4.82488">
        <ele>245.27</ele>
        <time>2017-12-14T13:49:46Z</time>
      </trkpt>
      <trkpt lat="44.44305" lon="4.82492">
        <ele>245.27</ele>
        <time>2017-12-14T13:49:49Z</time>
      </trkpt>
      <trkpt lat="44.44307" lon="4.82496">
        <ele>245.27</ele>
        <time>2017-12-14T13:49:52Z</time>
      </trkpt>
      <trkpt lat="44.4431" lon="4.82503">
        <ele>245.75</ele>
        <time>2017-12-14T13:49:58Z</time>
      </trkpt>
      <trkpt lat="44.44311" lon="4.82506">
        <ele>245.27</ele>
        <time>2017-12-14T13:50:00Z</time>
      </trkpt>
      <trkpt lat="44.44314" lon="4.82515">
        <ele>245.75</ele>
        <time>2017-12-14T13:50:07Z</time>
      </trkpt>
      <trkpt lat="44.44316" lon="4.82522">
        <ele>245.75</ele>
        <time>2017-12-14T13:50:22Z</time>
      </trkpt>
      <trkpt lat="44.44316" lon="4.82524">
        <ele>245.75</ele>
        <time>2017-12-14T13:50:27Z</time>
      </trkpt>
      <trkpt lat="44.44316" lon="4.82528">
        <ele>246.23</ele>
        <time>2017-12-14T13:50:29Z</time>
      </trkpt>
      <trkpt lat="44.44318" lon="4.82533">
        <ele>246.23</ele>
        <time>2017-12-14T13:50:34Z</time>
      </trkpt>
      <trkpt lat="44.44321" lon="4.82541">
        <ele>246.72</ele>
        <time>2017-12-14T13:50:41Z</time>
      </trkpt>
      <trkpt lat="44.44321" lon="4.8255">
        <ele>247.68</ele>
        <time>2017-12-14T13:50:47Z</time>
      </trkpt>
      <trkpt lat="44.44322" lon="4.82563">
        <ele>248.16</ele>
        <time>2017-12-14T13:50:56Z</time>
      </trkpt>
      <trkpt lat="44.44323" lon="4.82574">
        <ele>249.12</ele>
        <time>2017-12-14T13:51:06Z</time>
      </trkpt>
      <trkpt lat="44.44327" lon="4.82583">
        <ele>250.56</ele>
        <time>2017-12-14T13:51:15Z</time>
      </trkpt>
      <trkpt lat="44.44332" lon="4.82594">
        <ele>251.04</ele>
        <time>2017-12-14T13:51:24Z</time>
      </trkpt>
      <trkpt lat="44.44336" lon="4.82602">
        <ele>252.48</ele>
        <time>2017-12-14T13:51:34Z</time>
      </trkpt>
      <trkpt lat="44.44339" lon="4.82611">
        <ele>254.41</ele>
        <time>2017-12-14T13:51:43Z</time>
      </trkpt>
      <trkpt lat="44.44339" lon="4.82619">
        <ele>255.37</ele>
        <time>2017-12-14T13:51:56Z</time>
      </trkpt>
      <trkpt lat="44.4434" lon="4.82621">
        <ele>255.37</ele>
        <time>2017-12-14T13:52:07Z</time>
      </trkpt>
      <trkpt lat="44.4434" lon="4.82621">
        <ele>255.37</ele>
        <time>2017-12-14T13:52:08Z</time>
      </trkpt>
      <trkpt lat="44.44339" lon="4.82626">
        <ele>255.85</ele>
        <time>2017-12-14T13:52:19Z</time>
      </trkpt>
      <trkpt lat="44.44338" lon="4.8263">
        <ele>256.33</ele>
        <time>2017-12-14T13:52:22Z</time>
      </trkpt>
      <trkpt lat="44.44339" lon="4.82636">
        <ele>256.33</ele>
        <time>2017-12-14T13:52:27Z</time>
      </trkpt>
      <trkpt lat="44.44338" lon="4.82645">
        <ele>256.81</ele>
        <time>2017-12-14T13:52:37Z</time>
      </trkpt>
      <trkpt lat="44.44336" lon="4.82659">
        <ele>257.29</ele>
        <time>2017-12-14T13:52:46Z</time>
      </trkpt>
      <trkpt lat="44.44337" lon="4.82668">
        <ele>256.81</ele>
        <time>2017-12-14T13:52:57Z</time>
      </trkpt>
      <trkpt lat="44.44337" lon="4.8267">
        <ele>256.81</ele>
        <time>2017-12-14T13:52:58Z</time>
      </trkpt>
      <trkpt lat="44.44336" lon="4.82677">
        <ele>256.81</ele>
        <time>2017-12-14T13:53:05Z</time>
      </trkpt>
      <trkpt lat="44.44336" lon="4.82682">
        <ele>256.33</ele>
        <time>2017-12-14T13:53:08Z</time>
      </trkpt>
      <trkpt lat="44.44334" lon="4.82691">
        <ele>256.33</ele>
        <time>2017-12-14T13:53:12Z</time>
      </trkpt>
      <trkpt lat="44.44333" lon="4.82695">
        <ele>255.85</ele>
        <time>2017-12-14T13:53:17Z</time>
      </trkpt>
      <trkpt lat="44.44333" lon="4.82702">
        <ele>256.33</ele>
        <time>2017-12-14T13:53:21Z</time>
      </trkpt>
      <trkpt lat="44.4433" lon="4.82718">
        <ele>255.85</ele>
        <time>2017-12-14T13:53:31Z</time>
      </trkpt>
      <trkpt lat="44.44328" lon="4.82724">
        <ele>255.85</ele>
        <time>2017-12-14T13:53:36Z</time>
      </trkpt>
      <trkpt lat="44.44325" lon="4.82739">
        <ele>255.37</ele>
        <time>2017-12-14T13:53:47Z</time>
      </trkpt>
      <trkpt lat="44.44325" lon="4.82741">
        <ele>255.37</ele>
        <time>2017-12-14T13:53:49Z</time>
      </trkpt>
      <trkpt lat="44.44323" lon="4.82751">
        <ele>255.37</ele>
        <time>2017-12-14T13:53:53Z</time>
      </trkpt>
      <trkpt lat="44.44321" lon="4.82764">
        <ele>255.37</ele>
        <time>2017-12-14T13:54:04Z</time>
      </trkpt>
      <trkpt lat="44.44317" lon="4.82776">
        <ele>254.89</ele>
        <time>2017-12-14T13:54:14Z</time>
      </trkpt>
      <trkpt lat="44.44316" lon="4.82783">
        <ele>254.89</ele>
        <time>2017-12-14T13:54:19Z</time>
      </trkpt>
      <trkpt lat="44.44312" lon="4.828">
        <ele>254.89</ele>
        <time>2017-12-14T13:54:30Z</time>
      </trkpt>
      <trkpt lat="44.44309" lon="4.82812">
        <ele>254.89</ele>
        <time>2017-12-14T13:54:36Z</time>
      </trkpt>
      <trkpt lat="44.44308" lon="4.8282">
        <ele>254.41</ele>
        <time>2017-12-14T13:54:47Z</time>
      </trkpt>
      <trkpt lat="44.44306" lon="4.82828">
        <ele>254.89</ele>
        <time>2017-12-14T13:54:55Z</time>
      </trkpt>
      <trkpt lat="44.44303" lon="4.82838">
        <ele>254.41</ele>
        <time>2017-12-14T13:55:01Z</time>
      </trkpt>
      <trkpt lat="44.44299" lon="4.8285">
        <ele>254.41</ele>
        <time>2017-12-14T13:55:06Z</time>
      </trkpt>
      <trkpt lat="44.44295" lon="4.82859">
        <ele>253.93</ele>
        <time>2017-12-14T13:55:15Z</time>
      </trkpt>
      <trkpt lat="44.44289" lon="4.82876">
        <ele>253.44</ele>
        <time>2017-12-14T13:55:27Z</time>
      </trkpt>
      <trkpt lat="44.44284" lon="4.82888">
        <ele>252.96</ele>
        <time>2017-12-14T13:55:35Z</time>
      </trkpt>
      <trkpt lat="44.44281" lon="4.82903">
        <ele>252.48</ele>
        <time>2017-12-14T13:55:48Z</time>
      </trkpt>
      <trkpt lat="44.44278" lon="4.82916">
        <ele>252</ele>
        <time>2017-12-14T13:55:59Z</time>
      </trkpt>
      <trkpt lat="44.44278" lon="4.82916">
        <ele>252</ele>
        <time>2017-12-14T13:56:00Z</time>
      </trkpt>
      <trkpt lat="44.44274" lon="4.82932">
        <ele>251.52</ele>
        <time>2017-12-14T13:56:11Z</time>
      </trkpt>
      <trkpt lat="44.4427" lon="4.82947">
        <ele>251.04</ele>
        <time>2017-12-14T13:56:22Z</time>
      </trkpt>
      <trkpt lat="44.44266" lon="4.82964">
        <ele>251.04</ele>
        <time>2017-12-14T13:56:34Z</time>
      </trkpt>
      <trkpt lat="44.44266" lon="4.82965">
        <ele>251.04</ele>
        <time>2017-12-14T13:56:35Z</time>
      </trkpt>
      <trkpt lat="44.44265" lon="4.82972">
        <ele>250.56</ele>
        <time>2017-12-14T13:56:39Z</time>
      </trkpt>
      <trkpt lat="44.44259" lon="4.82987">
        <ele>251.04</ele>
        <time>2017-12-14T13:56:51Z</time>
      </trkpt>
      <trkpt lat="44.44255" lon="4.83003">
        <ele>251.04</ele>
        <time>2017-12-14T13:57:02Z</time>
      </trkpt>
      <trkpt lat="44.44255" lon="4.83005">
        <ele>251.04</ele>
        <time>2017-12-14T13:57:03Z</time>
      </trkpt>
      <trkpt lat="44.44255" lon="4.83009">
        <ele>251.04</ele>
        <time>2017-12-14T13:57:06Z</time>
      </trkpt>
      <trkpt lat="44.44253" lon="4.83015">
        <ele>250.56</ele>
        <time>2017-12-14T13:57:09Z</time>
      </trkpt>
      <trkpt lat="44.44245" lon="4.83029">
        <ele>251.04</ele>
        <time>2017-12-14T13:57:21Z</time>
      </trkpt>
      <trkpt lat="44.44242" lon="4.83037">
        <ele>250.56</ele>
        <time>2017-12-14T13:57:25Z</time>
      </trkpt>
      <trkpt lat="44.44239" lon="4.83052">
        <ele>250.08</ele>
        <time>2017-12-14T13:57:37Z</time>
      </trkpt>
      <trkpt lat="44.44236" lon="4.83065">
        <ele>250.08</ele>
        <time>2017-12-14T13:57:48Z</time>
      </trkpt>
      <trkpt lat="44.44228" lon="4.83088">
        <ele>250.56</ele>
        <time>2017-12-14T13:57:59Z</time>
      </trkpt>
      <trkpt lat="44.44225" lon="4.83096">
        <ele>250.08</ele>
        <time>2017-12-14T13:58:08Z</time>
      </trkpt>
      <trkpt lat="44.44222" lon="4.83105">
        <ele>250.08</ele>
        <time>2017-12-14T13:58:16Z</time>
      </trkpt>
      <trkpt lat="44.44215" lon="4.83118">
        <ele>250.56</ele>
        <time>2017-12-14T13:58:28Z</time>
      </trkpt>
      <trkpt lat="44.4421" lon="4.8313">
        <ele>250.56</ele>
        <time>2017-12-14T13:58:37Z</time>
      </trkpt>
      <trkpt lat="44.44205" lon="4.83142">
        <ele>251.04</ele>
        <time>2017-12-14T13:58:47Z</time>
      </trkpt>
      <trkpt lat="44.44199" lon="4.83154">
        <ele>251.52</ele>
        <time>2017-12-14T13:58:57Z</time>
      </trkpt>
      <trkpt lat="44.4419" lon="4.83166">
        <ele>252.48</ele>
        <time>2017-12-14T13:59:09Z</time>
      </trkpt>
      <trkpt lat="44.44184" lon="4.83175">
        <ele>253.44</ele>
        <time>2017-12-14T13:59:19Z</time>
      </trkpt>
      <trkpt lat="44.44174" lon="4.83185">
        <ele>253.93</ele>
        <time>2017-12-14T13:59:32Z</time>
      </trkpt>
      <trkpt lat="44.44171" lon="4.83187">
        <ele>253.93</ele>
        <time>2017-12-14T13:59:34Z</time>
      </trkpt>
      <trkpt lat="44.44158" lon="4.83198">
        <ele>254.89</ele>
        <time>2017-12-14T13:59:47Z</time>
      </trkpt>
      <trkpt lat="44.4415" lon="4.83206">
        <ele>255.85</ele>
        <time>2017-12-14T13:59:59Z</time>
      </trkpt>
      <trkpt lat="44.4414" lon="4.83218">
        <ele>256.81</ele>
        <time>2017-12-14T14:00:13Z</time>
      </trkpt>
      <trkpt lat="44.44139" lon="4.83221">
        <ele>257.29</ele>
        <time>2017-12-14T14:00:16Z</time>
      </trkpt>
      <trkpt lat="44.44138" lon="4.83223">
        <ele>257.29</ele>
        <time>2017-12-14T14:00:18Z</time>
      </trkpt>
      <trkpt lat="44.44134" lon="4.83227">
        <ele>257.77</ele>
        <time>2017-12-14T14:00:23Z</time>
      </trkpt>
      <trkpt lat="44.44125" lon="4.8324">
        <ele>258.73</ele>
        <time>2017-12-14T14:00:36Z</time>
      </trkpt>
      <trkpt lat="44.44123" lon="4.83243">
        <ele>259.21</ele>
        <time>2017-12-14T14:00:39Z</time>
      </trkpt>
      <trkpt lat="44.44122" lon="4.83262">
        <ele>260.17</ele>
        <time>2017-12-14T14:00:53Z</time>
      </trkpt>
      <trkpt lat="44.44122" lon="4.83269">
        <ele>260.17</ele>
        <time>2017-12-14T14:00:59Z</time>
      </trkpt>
      <trkpt lat="44.44122" lon="4.83278">
        <ele>260.17</ele>
        <time>2017-12-14T14:01:05Z</time>
      </trkpt>
      <trkpt lat="44.4412" lon="4.83292">
        <ele>261.14</ele>
        <time>2017-12-14T14:01:14Z</time>
      </trkpt>
      <trkpt lat="44.4412" lon="4.83295">
        <ele>261.14</ele>
        <time>2017-12-14T14:01:16Z</time>
      </trkpt>
      <trkpt lat="44.4412" lon="4.8331">
        <ele>261.62</ele>
        <time>2017-12-14T14:01:25Z</time>
      </trkpt>
      <trkpt lat="44.44121" lon="4.83327">
        <ele>262.1</ele>
        <time>2017-12-14T14:01:37Z</time>
      </trkpt>
      <trkpt lat="44.44122" lon="4.8333">
        <ele>263.06</ele>
        <time>2017-12-14T14:01:41Z</time>
      </trkpt>
      <trkpt lat="44.44123" lon="4.83333">
        <ele>262.58</ele>
        <time>2017-12-14T14:01:43Z</time>
      </trkpt>
      <trkpt lat="44.44124" lon="4.83339">
        <ele>262.1</ele>
        <time>2017-12-14T14:01:48Z</time>
      </trkpt>
      <trkpt lat="44.44122" lon="4.83346">
        <ele>263.54</ele>
        <time>2017-12-14T14:01:59Z</time>
      </trkpt>
      <trkpt lat="44.44121" lon="4.83348">
        <ele>263.54</ele>
        <time>2017-12-14T14:02:10Z</time>
      </trkpt>
      <trkpt lat="44.4412" lon="4.83347">
        <ele>263.54</ele>
        <time>2017-12-14T14:02:29Z</time>
      </trkpt>
      <trkpt lat="44.44119" lon="4.83346">
        <ele>263.54</ele>
        <time>2017-12-14T14:02:51Z</time>
      </trkpt>
      <trkpt lat="44.44118" lon="4.83346">
        <ele>263.54</ele>
        <time>2017-12-14T14:03:05Z</time>
      </trkpt>
      <trkpt lat="44.44107" lon="4.83343">
        <ele>264.5</ele>
        <time>2017-12-14T14:03:18Z</time>
      </trkpt>
      <trkpt lat="44.44103" lon="4.83343">
        <ele>264.5</ele>
        <time>2017-12-14T14:03:23Z</time>
      </trkpt>
      <trkpt lat="44.44095" lon="4.83334">
        <ele>265.46</ele>
        <time>2017-12-14T14:03:35Z</time>
      </trkpt>
      <trkpt lat="44.44092" lon="4.83333">
        <ele>265.94</ele>
        <time>2017-12-14T14:03:39Z</time>
      </trkpt>
      <trkpt lat="44.44085" lon="4.83327">
        <ele>266.42</ele>
        <time>2017-12-14T14:03:45Z</time>
      </trkpt>
      <trkpt lat="44.44082" lon="4.83317">
        <ele>266.9</ele>
        <time>2017-12-14T14:03:53Z</time>
      </trkpt>
      <trkpt lat="44.4408" lon="4.83306">
        <ele>267.38</ele>
        <time>2017-12-14T14:04:01Z</time>
      </trkpt>
      <trkpt lat="44.44078" lon="4.83299">
        <ele>268.35</ele>
        <time>2017-12-14T14:04:07Z</time>
      </trkpt>
      <trkpt lat="44.44069" lon="4.83288">
        <ele>269.31</ele>
        <time>2017-12-14T14:04:17Z</time>
      </trkpt>
      <trkpt lat="44.44067" lon="4.83282">
        <ele>269.79</ele>
        <time>2017-12-14T14:04:22Z</time>
      </trkpt>
      <trkpt lat="44.44064" lon="4.83275">
        <ele>270.27</ele>
        <time>2017-12-14T14:04:28Z</time>
      </trkpt>
      <trkpt lat="44.44062" lon="4.83269">
        <ele>270.75</ele>
        <time>2017-12-14T14:04:34Z</time>
      </trkpt>
      <trkpt lat="44.44059" lon="4.8326">
        <ele>271.23</ele>
        <time>2017-12-14T14:04:41Z</time>
      </trkpt>
      <trkpt lat="44.44058" lon="4.83256">
        <ele>271.23</ele>
        <time>2017-12-14T14:04:43Z</time>
      </trkpt>
      <trkpt lat="44.44054" lon="4.83252">
        <ele>271.23</ele>
        <time>2017-12-14T14:04:49Z</time>
      </trkpt>
      <trkpt lat="44.44051" lon="4.83243">
        <ele>271.71</ele>
        <time>2017-12-14T14:04:56Z</time>
      </trkpt>
      <trkpt lat="44.44046" lon="4.83231">
        <ele>271.71</ele>
        <time>2017-12-14T14:05:05Z</time>
      </trkpt>
      <trkpt lat="44.44041" lon="4.83216">
        <ele>271.23</ele>
        <time>2017-12-14T14:05:16Z</time>
      </trkpt>
      <trkpt lat="44.44031" lon="4.83201">
        <ele>271.23</ele>
        <time>2017-12-14T14:05:28Z</time>
      </trkpt>
      <trkpt lat="44.44029" lon="4.83194">
        <ele>272.19</ele>
        <time>2017-12-14T14:05:34Z</time>
      </trkpt>
      <trkpt lat="44.44022" lon="4.83192">
        <ele>272.19</ele>
        <time>2017-12-14T14:05:45Z</time>
      </trkpt>
      <trkpt lat="44.44012" lon="4.83199">
        <ele>271.71</ele>
        <time>2017-12-14T14:05:55Z</time>
      </trkpt>
      <trkpt lat="44.44001" lon="4.8321">
        <ele>271.71</ele>
        <time>2017-12-14T14:06:06Z</time>
      </trkpt>
      <trkpt lat="44.44" lon="4.83212">
        <ele>271.71</ele>
        <time>2017-12-14T14:06:08Z</time>
      </trkpt>
      <trkpt lat="44.43998" lon="4.83216">
        <ele>271.23</ele>
        <time>2017-12-14T14:06:13Z</time>
      </trkpt>
      <trkpt lat="44.4399" lon="4.83226">
        <ele>270.75</ele>
        <time>2017-12-14T14:06:23Z</time>
      </trkpt>
      <trkpt lat="44.43982" lon="4.83234">
        <ele>270.27</ele>
        <time>2017-12-14T14:06:34Z</time>
      </trkpt>
      <trkpt lat="44.43974" lon="4.83241">
        <ele>269.79</ele>
        <time>2017-12-14T14:06:45Z</time>
      </trkpt>
      <trkpt lat="44.43974" lon="4.83241">
        <ele>269.79</ele>
        <time>2017-12-14T14:06:46Z</time>
      </trkpt>
      <trkpt lat="44.43971" lon="4.83242">
        <ele>269.79</ele>
        <time>2017-12-14T14:06:49Z</time>
      </trkpt>
      <trkpt lat="44.43968" lon="4.83244">
        <ele>269.79</ele>
        <time>2017-12-14T14:06:51Z</time>
      </trkpt>
      <trkpt lat="44.43959" lon="4.83248">
        <ele>269.31</ele>
        <time>2017-12-14T14:07:01Z</time>
      </trkpt>
      <trkpt lat="44.43946" lon="4.83258">
        <ele>268.83</ele>
        <time>2017-12-14T14:07:15Z</time>
      </trkpt>
      <trkpt lat="44.43943" lon="4.8326">
        <ele>268.35</ele>
        <time>2017-12-14T14:07:18Z</time>
      </trkpt>
      <trkpt lat="44.4394" lon="4.83262">
        <ele>268.35</ele>
        <time>2017-12-14T14:07:21Z</time>
      </trkpt>
      <trkpt lat="44.43934" lon="4.83268">
        <ele>267.86</ele>
        <time>2017-12-14T14:07:29Z</time>
      </trkpt>
      <trkpt lat="44.43931" lon="4.83271">
        <ele>267.38</ele>
        <time>2017-12-14T14:07:32Z</time>
      </trkpt>
      <trkpt lat="44.43925" lon="4.83275">
        <ele>267.38</ele>
        <time>2017-12-14T14:07:37Z</time>
      </trkpt>
      <trkpt lat="44.43916" lon="4.83282">
        <ele>266.42</ele>
        <time>2017-12-14T14:07:47Z</time>
      </trkpt>
      <trkpt lat="44.43907" lon="4.83288">
        <ele>265.94</ele>
        <time>2017-12-14T14:07:57Z</time>
      </trkpt>
      <trkpt lat="44.43904" lon="4.8329">
        <ele>265.46</ele>
        <time>2017-12-14T14:08:00Z</time>
      </trkpt>
      <trkpt lat="44.43894" lon="4.83294">
        <ele>264.98</ele>
        <time>2017-12-14T14:08:11Z</time>
      </trkpt>
      <trkpt lat="44.43884" lon="4.83301">
        <ele>264.5</ele>
        <time>2017-12-14T14:08:22Z</time>
      </trkpt>
      <trkpt lat="44.43882" lon="4.83302">
        <ele>264.02</ele>
        <time>2017-12-14T14:08:25Z</time>
      </trkpt>
      <trkpt lat="44.43879" lon="4.83305">
        <ele>263.54</ele>
        <time>2017-12-14T14:08:29Z</time>
      </trkpt>
      <trkpt lat="44.43867" lon="4.83306">
        <ele>262.1</ele>
        <time>2017-12-14T14:08:42Z</time>
      </trkpt>
      <trkpt lat="44.43858" lon="4.83308">
        <ele>261.14</ele>
        <time>2017-12-14T14:08:52Z</time>
      </trkpt>
      <trkpt lat="44.43856" lon="4.83308">
        <ele>261.14</ele>
        <time>2017-12-14T14:08:53Z</time>
      </trkpt>
      <trkpt lat="44.43852" lon="4.8331">
        <ele>260.17</ele>
        <time>2017-12-14T14:08:59Z</time>
      </trkpt>
      <trkpt lat="44.43844" lon="4.83313">
        <ele>259.21</ele>
        <time>2017-12-14T14:09:09Z</time>
      </trkpt>
      <trkpt lat="44.43843" lon="4.83314">
        <ele>258.73</ele>
        <time>2017-12-14T14:09:12Z</time>
      </trkpt>
      <trkpt lat="44.43835" lon="4.83314">
        <ele>257.29</ele>
        <time>2017-12-14T14:09:24Z</time>
      </trkpt>
      <trkpt lat="44.43828" lon="4.83317">
        <ele>256.33</ele>
        <time>2017-12-14T14:09:36Z</time>
      </trkpt>
      <trkpt lat="44.43821" lon="4.83322">
        <ele>255.37</ele>
        <time>2017-12-14T14:09:48Z</time>
      </trkpt>
      <trkpt lat="44.43813" lon="4.83325">
        <ele>253.93</ele>
        <time>2017-12-14T14:10:01Z</time>
      </trkpt>
      <trkpt lat="44.43802" lon="4.83329">
        <ele>253.44</ele>
        <time>2017-12-14T14:10:14Z</time>
      </trkpt>
      <trkpt lat="44.43795" lon="4.83331">
        <ele>252.48</ele>
        <time>2017-12-14T14:10:24Z</time>
      </trkpt>
      <trkpt lat="44.43789" lon="4.83332">
        <ele>252.96</ele>
        <time>2017-12-14T14:10:46Z</time>
      </trkpt>
      <trkpt lat="44.43779" lon="4.83333">
        <ele>252</ele>
        <time>2017-12-14T14:11:02Z</time>
      </trkpt>
      <trkpt lat="44.4377" lon="4.83339">
        <ele>250.56</ele>
        <time>2017-12-14T14:11:18Z</time>
      </trkpt>
      <trkpt lat="44.4376" lon="4.83342">
        <ele>249.6</ele>
        <time>2017-12-14T14:11:31Z</time>
      </trkpt>
      <trkpt lat="44.43747" lon="4.83347">
        <ele>248.16</ele>
        <time>2017-12-14T14:11:48Z</time>
      </trkpt>
      <trkpt lat="44.43743" lon="4.83346">
        <ele>247.68</ele>
        <time>2017-12-14T14:12:08Z</time>
      </trkpt>
      <trkpt lat="44.43737" lon="4.83338">
        <ele>246.72</ele>
        <time>2017-12-14T14:12:26Z</time>
      </trkpt>
      <trkpt lat="44.43736" lon="4.83335">
        <ele>246.72</ele>
        <time>2017-12-14T14:12:28Z</time>
      </trkpt>
      <trkpt lat="44.43726" lon="4.83312">
        <ele>245.27</ele>
        <time>2017-12-14T14:12:44Z</time>
      </trkpt>
      <trkpt lat="44.43716" lon="4.83295">
        <ele>244.79</ele>
        <time>2017-12-14T14:13:01Z</time>
      </trkpt>
      <trkpt lat="44.43703" lon="4.83271">
        <ele>243.35</ele>
        <time>2017-12-14T14:13:16Z</time>
      </trkpt>
      <trkpt lat="44.43697" lon="4.83261">
        <ele>242.39</ele>
        <time>2017-12-14T14:13:26Z</time>
      </trkpt>
      <trkpt lat="44.43693" lon="4.83258">
        <ele>241.91</ele>
        <time>2017-12-14T14:13:29Z</time>
      </trkpt>
      <trkpt lat="44.4368" lon="4.83235">
        <ele>240.47</ele>
        <time>2017-12-14T14:13:48Z</time>
      </trkpt>
      <trkpt lat="44.43674" lon="4.8322">
        <ele>239.99</ele>
        <time>2017-12-14T14:13:58Z</time>
      </trkpt>
      <trkpt lat="44.43666" lon="4.8321">
        <ele>239.51</ele>
        <time>2017-12-14T14:14:05Z</time>
      </trkpt>
      <trkpt lat="44.43654" lon="4.83188">
        <ele>238.54</ele>
        <time>2017-12-14T14:14:19Z</time>
      </trkpt>
      <trkpt lat="44.43648" lon="4.83185">
        <ele>238.06</ele>
        <time>2017-12-14T14:14:24Z</time>
      </trkpt>
      <trkpt lat="44.4363" lon="4.83186">
        <ele>237.1</ele>
        <time>2017-12-14T14:14:41Z</time>
      </trkpt>
      <trkpt lat="44.43618" lon="4.83186">
        <ele>235.66</ele>
        <time>2017-12-14T14:14:54Z</time>
      </trkpt>
      <trkpt lat="44.4361" lon="4.83188">
        <ele>234.7</ele>
        <time>2017-12-14T14:15:03Z</time>
      </trkpt>
      <trkpt lat="44.43599" lon="4.8319">
        <ele>233.74</ele>
        <time>2017-12-14T14:15:16Z</time>
      </trkpt>
      <trkpt lat="44.43581" lon="4.83193">
        <ele>232.78</ele>
        <time>2017-12-14T14:15:32Z</time>
      </trkpt>
      <trkpt lat="44.43565" lon="4.83194">
        <ele>231.81</ele>
        <time>2017-12-14T14:15:45Z</time>
      </trkpt>
      <trkpt lat="44.43546" lon="4.83197">
        <ele>231.33</ele>
        <time>2017-12-14T14:16:01Z</time>
      </trkpt>
      <trkpt lat="44.43532" lon="4.83199">
        <ele>230.85</ele>
        <time>2017-12-14T14:16:15Z</time>
      </trkpt>
      <trkpt lat="44.43524" lon="4.832">
        <ele>230.37</ele>
        <time>2017-12-14T14:16:25Z</time>
      </trkpt>
      <trkpt lat="44.4352" lon="4.83201">
        <ele>229.89</ele>
        <time>2017-12-14T14:16:29Z</time>
      </trkpt>
      <trkpt lat="44.43506" lon="4.83205">
        <ele>229.89</ele>
        <time>2017-12-14T14:16:44Z</time>
      </trkpt>
      <trkpt lat="44.43505" lon="4.83209">
        <ele>229.41</ele>
        <time>2017-12-14T14:17:05Z</time>
      </trkpt>
      <trkpt lat="44.43507" lon="4.83212">
        <ele>230.37</ele>
        <time>2017-12-14T14:17:27Z</time>
      </trkpt>
      <trkpt lat="44.43508" lon="4.83213">
        <ele>230.37</ele>
        <time>2017-12-14T14:17:53Z</time>
      </trkpt>
      <trkpt lat="44.43507" lon="4.83215">
        <ele>230.37</ele>
        <time>2017-12-14T14:18:19Z</time>
      </trkpt>
      <trkpt lat="44.43506" lon="4.83215">
        <ele>230.37</ele>
        <time>2017-12-14T14:18:46Z</time>
      </trkpt>
      <trkpt lat="44.43505" lon="4.83215">
        <ele>230.37</ele>
        <time>2017-12-14T14:19:17Z</time>
      </trkpt>
      <trkpt lat="44.43506" lon="4.83215">
        <ele>230.37</ele>
        <time>2017-12-14T14:19:44Z</time>
      </trkpt>
      <trkpt lat="44.43506" lon="4.83215">
        <ele>230.37</ele>
        <time>2017-12-14T14:20:10Z</time>
      </trkpt>
      <trkpt lat="44.43506" lon="4.83214">
        <ele>230.85</ele>
        <time>2017-12-14T14:20:34Z</time>
      </trkpt>
      <trkpt lat="44.43507" lon="4.83214">
        <ele>230.37</ele>
        <time>2017-12-14T14:21:00Z</time>
      </trkpt>
      <trkpt lat="44.43507" lon="4.83214">
        <ele>230.37</ele>
        <time>2017-12-14T14:21:30Z</time>
      </trkpt>
      <trkpt lat="44.43507" lon="4.83216">
        <ele>229.89</ele>
        <time>2017-12-14T14:21:47Z</time>
      </trkpt>
      <trkpt lat="44.43507" lon="4.83217">
        <ele>229.89</ele>
        <time>2017-12-14T14:22:12Z</time>
      </trkpt>
      <trkpt lat="44.43508" lon="4.83217">
        <ele>229.89</ele>
        <time>2017-12-14T14:22:40Z</time>
      </trkpt>
      <trkpt lat="44.43508" lon="4.83217">
        <ele>229.89</ele>
        <time>2017-12-14T14:23:01Z</time>
      </trkpt>
      <trkpt lat="44.43507" lon="4.83218">
        <ele>229.41</ele>
        <time>2017-12-14T14:23:30Z</time>
      </trkpt>
      <trkpt lat="44.43508" lon="4.83219">
        <ele>229.89</ele>
        <time>2017-12-14T14:23:46Z</time>
      </trkpt>
      <trkpt lat="44.43508" lon="4.8322">
        <ele>229.41</ele>
        <time>2017-12-14T14:24:16Z</time>
      </trkpt>
      <trkpt lat="44.43508" lon="4.83222">
        <ele>229.41</ele>
        <time>2017-12-14T14:24:38Z</time>
      </trkpt>
      <trkpt lat="44.43508" lon="4.83222">
        <ele>229.41</ele>
        <time>2017-12-14T14:25:13Z</time>
      </trkpt>
      <trkpt lat="44.43508" lon="4.83222">
        <ele>229.41</ele>
        <time>2017-12-14T14:25:43Z</time>
      </trkpt>
      <trkpt lat="44.43508" lon="4.83222">
        <ele>229.41</ele>
        <time>2017-12-14T14:26:09Z</time>
      </trkpt>
      <trkpt lat="44.43508" lon="4.83222">
        <ele>229.41</ele>
        <time>2017-12-14T14:26:38Z</time>
      </trkpt>
      <trkpt lat="44.43509" lon="4.83222">
        <ele>229.89</ele>
        <time>2017-12-14T14:27:02Z</time>
      </trkpt>
      <trkpt lat="44.43509" lon="4.83223">
        <ele>229.89</ele>
        <time>2017-12-14T14:27:25Z</time>
      </trkpt>
      <trkpt lat="44.43509" lon="4.83223">
        <ele>229.89</ele>
        <time>2017-12-14T14:27:53Z</time>
      </trkpt>
      <trkpt lat="44.43509" lon="4.83224">
        <ele>229.89</ele>
        <time>2017-12-14T14:28:23Z</time>
      </trkpt>
      <trkpt lat="44.43508" lon="4.83223">
        <ele>229.89</ele>
        <time>2017-12-14T14:28:50Z</time>
      </trkpt>
      <trkpt lat="44.43508" lon="4.83223">
        <ele>229.89</ele>
        <time>2017-12-14T14:29:20Z</time>
      </trkpt>
      <trkpt lat="44.43508" lon="4.83223">
        <ele>229.89</ele>
        <time>2017-12-14T14:29:46Z</time>
      </trkpt>
      <trkpt lat="44.43508" lon="4.83224">
        <ele>229.89</ele>
        <time>2017-12-14T14:30:14Z</time>
      </trkpt>
      <trkpt lat="44.43508" lon="4.83223">
        <ele>229.89</ele>
        <time>2017-12-14T14:30:44Z</time>
      </trkpt>
      <trkpt lat="44.43508" lon="4.83224">
        <ele>229.89</ele>
        <time>2017-12-14T14:31:02Z</time>
      </trkpt>
      <trkpt lat="44.43508" lon="4.83223">
        <ele>229.89</ele>
        <time>2017-12-14T14:31:24Z</time>
      </trkpt>
      <trkpt lat="44.43508" lon="4.83224">
        <ele>229.89</ele>
        <time>2017-12-14T14:31:47Z</time>
      </trkpt>
      <trkpt lat="44.43508" lon="4.83223">
        <ele>229.89</ele>
        <time>2017-12-14T14:32:09Z</time>
      </trkpt>
      <trkpt lat="44.43507" lon="4.83235">
        <ele>229.89</ele>
        <time>2017-12-14T14:32:24Z</time>
      </trkpt>
      <trkpt lat="44.43503" lon="4.83247">
        <ele>230.37</ele>
        <time>2017-12-14T14:32:39Z</time>
      </trkpt>
      <trkpt lat="44.43499" lon="4.83262">
        <ele>230.37</ele>
        <time>2017-12-14T14:32:53Z</time>
      </trkpt>
      <trkpt lat="44.43494" lon="4.83281">
        <ele>230.37</ele>
        <time>2017-12-14T14:33:10Z</time>
      </trkpt>
      <trkpt lat="44.43494" lon="4.83298">
        <ele>231.81</ele>
        <time>2017-12-14T14:33:23Z</time>
      </trkpt>
      <trkpt lat="44.43492" lon="4.83314">
        <ele>232.78</ele>
        <time>2017-12-14T14:33:36Z</time>
      </trkpt>
      <trkpt lat="44.43491" lon="4.83317">
        <ele>233.26</ele>
        <time>2017-12-14T14:33:39Z</time>
      </trkpt>
      <trkpt lat="44.43489" lon="4.83338">
        <ele>232.78</ele>
        <time>2017-12-14T14:33:55Z</time>
      </trkpt>
      <trkpt lat="44.43486" lon="4.83351">
        <ele>233.26</ele>
        <time>2017-12-14T14:34:07Z</time>
      </trkpt>
      <trkpt lat="44.43481" lon="4.83374">
        <ele>231.81</ele>
        <time>2017-12-14T14:34:23Z</time>
      </trkpt>
      <trkpt lat="44.43477" lon="4.83395">
        <ele>231.33</ele>
        <time>2017-12-14T14:34:38Z</time>
      </trkpt>
      <trkpt lat="44.43476" lon="4.83398">
        <ele>231.33</ele>
        <time>2017-12-14T14:34:40Z</time>
      </trkpt>
      <trkpt lat="44.43477" lon="4.83422">
        <ele>230.85</ele>
        <time>2017-12-14T14:34:58Z</time>
      </trkpt>
      <trkpt lat="44.43472" lon="4.83443">
        <ele>230.37</ele>
        <time>2017-12-14T14:35:14Z</time>
      </trkpt>
      <trkpt lat="44.4347" lon="4.83465">
        <ele>229.41</ele>
        <time>2017-12-14T14:35:29Z</time>
      </trkpt>
      <trkpt lat="44.43463" lon="4.8349">
        <ele>229.89</ele>
        <time>2017-12-14T14:35:48Z</time>
      </trkpt>
      <trkpt lat="44.43463" lon="4.83518">
        <ele>229.89</ele>
        <time>2017-12-14T14:36:07Z</time>
      </trkpt>
      <trkpt lat="44.43461" lon="4.83523">
        <ele>229.41</ele>
        <time>2017-12-14T14:36:13Z</time>
      </trkpt>
      <trkpt lat="44.43443" lon="4.83533">
        <ele>228.45</ele>
        <time>2017-12-14T14:36:30Z</time>
      </trkpt>
      <trkpt lat="44.43434" lon="4.8354">
        <ele>227.49</ele>
        <time>2017-12-14T14:36:42Z</time>
      </trkpt>
      <trkpt lat="44.43414" lon="4.8355">
        <ele>227.01</ele>
        <time>2017-12-14T14:36:59Z</time>
      </trkpt>
      <trkpt lat="44.43397" lon="4.83563">
        <ele>226.05</ele>
        <time>2017-12-14T14:37:15Z</time>
      </trkpt>
      <trkpt lat="44.43391" lon="4.83568">
        <ele>226.05</ele>
        <time>2017-12-14T14:37:23Z</time>
      </trkpt>
      <trkpt lat="44.43379" lon="4.83561">
        <ele>225.09</ele>
        <time>2017-12-14T14:37:40Z</time>
      </trkpt>
      <trkpt lat="44.43363" lon="4.8355">
        <ele>224.12</ele>
        <time>2017-12-14T14:37:58Z</time>
      </trkpt>
      <trkpt lat="44.43342" lon="4.83545">
        <ele>224.12</ele>
        <time>2017-12-14T14:38:16Z</time>
      </trkpt>
      <trkpt lat="44.43337" lon="4.83543">
        <ele>223.64</ele>
        <time>2017-12-14T14:38:20Z</time>
      </trkpt>
      <trkpt lat="44.43323" lon="4.83531">
        <ele>223.16</ele>
        <time>2017-12-14T14:38:36Z</time>
      </trkpt>
      <trkpt lat="44.43307" lon="4.83516">
        <ele>222.68</ele>
        <time>2017-12-14T14:38:52Z</time>
      </trkpt>
      <trkpt lat="44.43292" lon="4.83503">
        <ele>222.2</ele>
        <time>2017-12-14T14:39:07Z</time>
      </trkpt>
      <trkpt lat="44.43272" lon="4.83486">
        <ele>221.24</ele>
        <time>2017-12-14T14:39:24Z</time>
      </trkpt>
      <trkpt lat="44.43262" lon="4.83466">
        <ele>220.76</ele>
        <time>2017-12-14T14:39:41Z</time>
      </trkpt>
      <trkpt lat="44.43251" lon="4.83453">
        <ele>220.28</ele>
        <time>2017-12-14T14:39:57Z</time>
      </trkpt>
      <trkpt lat="44.4325" lon="4.83452">
        <ele>219.8</ele>
        <time>2017-12-14T14:40:20Z</time>
      </trkpt>
      <trkpt lat="44.43244" lon="4.83444">
        <ele>219.8</ele>
        <time>2017-12-14T14:40:35Z</time>
      </trkpt>
      <trkpt lat="44.43241" lon="4.83439">
        <ele>219.32</ele>
        <time>2017-12-14T14:40:39Z</time>
      </trkpt>
      <trkpt lat="44.43224" lon="4.8342">
        <ele>218.84</ele>
        <time>2017-12-14T14:40:56Z</time>
      </trkpt>
      <trkpt lat="44.43221" lon="4.83421">
        <ele>218.84</ele>
        <time>2017-12-14T14:40:59Z</time>
      </trkpt>
      <trkpt lat="44.43214" lon="4.83422">
        <ele>218.36</ele>
        <time>2017-12-14T14:41:05Z</time>
      </trkpt>
      <trkpt lat="44.43192" lon="4.83421">
        <ele>217.88</ele>
        <time>2017-12-14T14:41:23Z</time>
      </trkpt>
      <trkpt lat="44.43178" lon="4.83418">
        <ele>217.4</ele>
        <time>2017-12-14T14:41:39Z</time>
      </trkpt>
      <trkpt lat="44.43164" lon="4.83418">
        <ele>216.91</ele>
        <time>2017-12-14T14:41:52Z</time>
      </trkpt>
      <trkpt lat="44.43136" lon="4.83411">
        <ele>216.91</ele>
        <time>2017-12-14T14:42:10Z</time>
      </trkpt>
      <trkpt lat="44.43119" lon="4.8341">
        <ele>217.4</ele>
        <time>2017-12-14T14:42:23Z</time>
      </trkpt>
      <trkpt lat="44.43101" lon="4.83403">
        <ele>217.4</ele>
        <time>2017-12-14T14:42:37Z</time>
      </trkpt>
      <trkpt lat="44.43082" lon="4.83399">
        <ele>217.4</ele>
        <time>2017-12-14T14:42:53Z</time>
      </trkpt>
      <trkpt lat="44.43069" lon="4.83392">
        <ele>217.4</ele>
        <time>2017-12-14T14:43:06Z</time>
      </trkpt>
      <trkpt lat="44.4305" lon="4.83387">
        <ele>217.4</ele>
        <time>2017-12-14T14:43:19Z</time>
      </trkpt>
      <trkpt lat="44.43034" lon="4.83379">
        <ele>217.4</ele>
        <time>2017-12-14T14:43:33Z</time>
      </trkpt>
      <trkpt lat="44.43032" lon="4.83376">
        <ele>217.4</ele>
        <time>2017-12-14T14:43:47Z</time>
      </trkpt>
      <trkpt lat="44.43008" lon="4.83357">
        <ele>217.88</ele>
        <time>2017-12-14T14:44:01Z</time>
      </trkpt>
      <trkpt lat="44.42986" lon="4.83345">
        <ele>218.36</ele>
        <time>2017-12-14T14:44:19Z</time>
      </trkpt>
      <trkpt lat="44.42974" lon="4.83341">
        <ele>218.36</ele>
        <time>2017-12-14T14:44:28Z</time>
      </trkpt>
      <trkpt lat="44.42963" lon="4.83329">
        <ele>218.84</ele>
        <time>2017-12-14T14:44:42Z</time>
      </trkpt>
      <trkpt lat="44.42952" lon="4.83322">
        <ele>219.32</ele>
        <time>2017-12-14T14:44:56Z</time>
      </trkpt>
      <trkpt lat="44.42943" lon="4.83316">
        <ele>219.8</ele>
        <time>2017-12-14T14:45:02Z</time>
      </trkpt>
      <trkpt lat="44.42923" lon="4.83302">
        <ele>219.32</ele>
        <time>2017-12-14T14:45:15Z</time>
      </trkpt>
      <trkpt lat="44.42916" lon="4.83297">
        <ele>217.88</ele>
        <time>2017-12-14T14:45:23Z</time>
      </trkpt>
      <trkpt lat="44.42914" lon="4.83295">
        <ele>217.4</ele>
        <time>2017-12-14T14:45:25Z</time>
      </trkpt>
      <trkpt lat="44.42912" lon="4.83293">
        <ele>216.91</ele>
        <time>2017-12-14T14:45:27Z</time>
      </trkpt>
      <trkpt lat="44.42906" lon="4.83285">
        <ele>214.99</ele>
        <time>2017-12-14T14:45:35Z</time>
      </trkpt>
      <trkpt lat="44.42909" lon="4.83272">
        <ele>213.07</ele>
        <time>2017-12-14T14:45:47Z</time>
      </trkpt>
      <trkpt lat="44.42916" lon="4.83264">
        <ele>210.67</ele>
        <time>2017-12-14T14:45:59Z</time>
      </trkpt>
      <trkpt lat="44.42918" lon="4.83262">
        <ele>210.19</ele>
        <time>2017-12-14T14:46:02Z</time>
      </trkpt>
      <trkpt lat="44.42919" lon="4.8326">
        <ele>209.7</ele>
        <time>2017-12-14T14:46:04Z</time>
      </trkpt>
      <trkpt lat="44.42925" lon="4.83249">
        <ele>207.78</ele>
        <time>2017-12-14T14:46:13Z</time>
      </trkpt>
      <trkpt lat="44.42928" lon="4.83232">
        <ele>204.9</ele>
        <time>2017-12-14T14:46:27Z</time>
      </trkpt>
      <trkpt lat="44.42918" lon="4.83216">
        <ele>203.94</ele>
        <time>2017-12-14T14:46:40Z</time>
      </trkpt>
      <trkpt lat="44.42902" lon="4.83221">
        <ele>202.49</ele>
        <time>2017-12-14T14:46:54Z</time>
      </trkpt>
      <trkpt lat="44.42895" lon="4.83228">
        <ele>201.53</ele>
        <time>2017-12-14T14:47:05Z</time>
      </trkpt>
      <trkpt lat="44.4288" lon="4.83235">
        <ele>199.13</ele>
        <time>2017-12-14T14:47:18Z</time>
      </trkpt>
      <trkpt lat="44.42868" lon="4.83241">
        <ele>197.21</ele>
        <time>2017-12-14T14:47:31Z</time>
      </trkpt>
      <trkpt lat="44.42853" lon="4.83247">
        <ele>195.28</ele>
        <time>2017-12-14T14:47:45Z</time>
      </trkpt>
      <trkpt lat="44.4285" lon="4.83246">
        <ele>195.28</ele>
        <time>2017-12-14T14:47:48Z</time>
      </trkpt>
      <trkpt lat="44.42835" lon="4.83245">
        <ele>194.32</ele>
        <time>2017-12-14T14:48:01Z</time>
      </trkpt>
      <trkpt lat="44.42825" lon="4.83247">
        <ele>192.4</ele>
        <time>2017-12-14T14:48:15Z</time>
      </trkpt>
      <trkpt lat="44.42814" lon="4.8324">
        <ele>190.48</ele>
        <time>2017-12-14T14:48:26Z</time>
      </trkpt>
      <trkpt lat="44.42801" lon="4.83234">
        <ele>189.04</ele>
        <time>2017-12-14T14:48:38Z</time>
      </trkpt>
      <trkpt lat="44.42786" lon="4.83225">
        <ele>187.11</ele>
        <time>2017-12-14T14:48:54Z</time>
      </trkpt>
      <trkpt lat="44.42783" lon="4.83219">
        <ele>186.63</ele>
        <time>2017-12-14T14:48:59Z</time>
      </trkpt>
      <trkpt lat="44.42777" lon="4.83202">
        <ele>184.23</ele>
        <time>2017-12-14T14:49:12Z</time>
      </trkpt>
      <trkpt lat="44.42775" lon="4.83199">
        <ele>183.27</ele>
        <time>2017-12-14T14:49:15Z</time>
      </trkpt>
      <trkpt lat="44.42768" lon="4.83184">
        <ele>180.87</ele>
        <time>2017-12-14T14:49:27Z</time>
      </trkpt>
      <trkpt lat="44.42768" lon="4.8317">
        <ele>179.42</ele>
        <time>2017-12-14T14:49:40Z</time>
      </trkpt>
      <trkpt lat="44.42768" lon="4.83169">
        <ele>179.42</ele>
        <time>2017-12-14T14:49:41Z</time>
      </trkpt>
      <trkpt lat="44.42765" lon="4.83152">
        <ele>177.5</ele>
        <time>2017-12-14T14:49:50Z</time>
      </trkpt>
      <trkpt lat="44.42755" lon="4.83138">
        <ele>176.54</ele>
        <time>2017-12-14T14:50:06Z</time>
      </trkpt>
      <trkpt lat="44.4275" lon="4.83122">
        <ele>175.1</ele>
        <time>2017-12-14T14:50:17Z</time>
      </trkpt>
      <trkpt lat="44.42745" lon="4.83105">
        <ele>173.66</ele>
        <time>2017-12-14T14:50:29Z</time>
      </trkpt>
      <trkpt lat="44.42744" lon="4.83097">
        <ele>172.69</ele>
        <time>2017-12-14T14:50:36Z</time>
      </trkpt>
      <trkpt lat="44.42735" lon="4.83079">
        <ele>170.77</ele>
        <time>2017-12-14T14:50:50Z</time>
      </trkpt>
      <trkpt lat="44.42729" lon="4.83062">
        <ele>168.37</ele>
        <time>2017-12-14T14:51:04Z</time>
      </trkpt>
      <trkpt lat="44.42727" lon="4.83045">
        <ele>166.45</ele>
        <time>2017-12-14T14:51:18Z</time>
      </trkpt>
      <trkpt lat="44.42727" lon="4.8304">
        <ele>165.96</ele>
        <time>2017-12-14T14:51:21Z</time>
      </trkpt>
      <trkpt lat="44.42728" lon="4.83036">
        <ele>165.48</ele>
        <time>2017-12-14T14:51:24Z</time>
      </trkpt>
      <trkpt lat="44.4273" lon="4.83018">
        <ele>164.04</ele>
        <time>2017-12-14T14:51:35Z</time>
      </trkpt>
      <trkpt lat="44.42731" lon="4.83014">
        <ele>163.56</ele>
        <time>2017-12-14T14:51:40Z</time>
      </trkpt>
      <trkpt lat="44.42733" lon="4.83005">
        <ele>163.08</ele>
        <time>2017-12-14T14:51:46Z</time>
      </trkpt>
      <trkpt lat="44.42733" lon="4.83002">
        <ele>163.08</ele>
        <time>2017-12-14T14:51:48Z</time>
      </trkpt>
      <trkpt lat="44.42733" lon="4.82993">
        <ele>162.12</ele>
        <time>2017-12-14T14:51:53Z</time>
      </trkpt>
      <trkpt lat="44.42735" lon="4.82978">
        <ele>160.68</ele>
        <time>2017-12-14T14:52:04Z</time>
      </trkpt>
      <trkpt lat="44.42735" lon="4.82971">
        <ele>159.72</ele>
        <time>2017-12-14T14:52:08Z</time>
      </trkpt>
      <trkpt lat="44.42729" lon="4.82953">
        <ele>157.31</ele>
        <time>2017-12-14T14:52:24Z</time>
      </trkpt>
      <trkpt lat="44.42729" lon="4.82951">
        <ele>156.83</ele>
        <time>2017-12-14T14:52:26Z</time>
      </trkpt>
      <trkpt lat="44.42721" lon="4.82934">
        <ele>154.91</ele>
        <time>2017-12-14T14:52:39Z</time>
      </trkpt>
      <trkpt lat="44.42714" lon="4.82922">
        <ele>152.51</ele>
        <time>2017-12-14T14:52:54Z</time>
      </trkpt>
      <trkpt lat="44.42701" lon="4.8291">
        <ele>150.58</ele>
        <time>2017-12-14T14:53:07Z</time>
      </trkpt>
      <trkpt lat="44.42693" lon="4.82896">
        <ele>148.66</ele>
        <time>2017-12-14T14:53:23Z</time>
      </trkpt>
      <trkpt lat="44.42689" lon="4.82888">
        <ele>147.7</ele>
        <time>2017-12-14T14:53:28Z</time>
      </trkpt>
      <trkpt lat="44.42685" lon="4.82867">
        <ele>145.78</ele>
        <time>2017-12-14T14:53:43Z</time>
      </trkpt>
      <trkpt lat="44.42677" lon="4.82848">
        <ele>143.85</ele>
        <time>2017-12-14T14:53:59Z</time>
      </trkpt>
      <trkpt lat="44.4267" lon="4.82842">
        <ele>142.89</ele>
        <time>2017-12-14T14:54:05Z</time>
      </trkpt>
      <trkpt lat="44.42657" lon="4.82836">
        <ele>139.53</ele>
        <time>2017-12-14T14:54:20Z</time>
      </trkpt>
      <trkpt lat="44.42652" lon="4.82836">
        <ele>139.05</ele>
        <time>2017-12-14T14:54:24Z</time>
      </trkpt>
      <trkpt lat="44.42638" lon="4.82836">
        <ele>137.13</ele>
        <time>2017-12-14T14:54:39Z</time>
      </trkpt>
      <trkpt lat="44.42634" lon="4.82835">
        <ele>136.16</ele>
        <time>2017-12-14T14:54:44Z</time>
      </trkpt>
      <trkpt lat="44.42629" lon="4.82833">
        <ele>135.68</ele>
        <time>2017-12-14T14:54:48Z</time>
      </trkpt>
      <trkpt lat="44.42617" lon="4.82825">
        <ele>134.24</ele>
        <time>2017-12-14T14:55:03Z</time>
      </trkpt>
      <trkpt lat="44.4261" lon="4.82808">
        <ele>132.8</ele>
        <time>2017-12-14T14:55:16Z</time>
      </trkpt>
      <trkpt lat="44.42606" lon="4.82801">
        <ele>132.32</ele>
        <time>2017-12-14T14:55:20Z</time>
      </trkpt>
      <trkpt lat="44.42599" lon="4.82794">
        <ele>132.32</ele>
        <time>2017-12-14T14:55:28Z</time>
      </trkpt>
      <trkpt lat="44.42595" lon="4.82784">
        <ele>131.84</ele>
        <time>2017-12-14T14:55:36Z</time>
      </trkpt>
      <trkpt lat="44.42591" lon="4.82769">
        <ele>131.36</ele>
        <time>2017-12-14T14:55:46Z</time>
      </trkpt>
      <trkpt lat="44.4259" lon="4.82767">
        <ele>130.88</ele>
        <time>2017-12-14T14:55:49Z</time>
      </trkpt>
      <trkpt lat="44.42583" lon="4.82748">
        <ele>130.4</ele>
        <time>2017-12-14T14:56:00Z</time>
      </trkpt>
      <trkpt lat="44.42582" lon="4.82744">
        <ele>130.4</ele>
        <time>2017-12-14T14:56:02Z</time>
      </trkpt>
      <trkpt lat="44.4258" lon="4.82736">
        <ele>129.92</ele>
        <time>2017-12-14T14:56:10Z</time>
      </trkpt>
      <trkpt lat="44.42579" lon="4.82733">
        <ele>129.92</ele>
        <time>2017-12-14T14:56:12Z</time>
      </trkpt>
      <trkpt lat="44.42573" lon="4.82714">
        <ele>129.43</ele>
        <time>2017-12-14T14:56:23Z</time>
      </trkpt>
      <trkpt lat="44.42573" lon="4.82712">
        <ele>129.43</ele>
        <time>2017-12-14T14:56:24Z</time>
      </trkpt>
      <trkpt lat="44.42568" lon="4.82696">
        <ele>129.43</ele>
        <time>2017-12-14T14:56:37Z</time>
      </trkpt>
      <trkpt lat="44.42568" lon="4.82691">
        <ele>128.95</ele>
        <time>2017-12-14T14:56:40Z</time>
      </trkpt>
      <trkpt lat="44.42568" lon="4.82681">
        <ele>128.95</ele>
        <time>2017-12-14T14:56:53Z</time>
      </trkpt>
      <trkpt lat="44.42568" lon="4.8268">
        <ele>128.95</ele>
        <time>2017-12-14T14:56:54Z</time>
      </trkpt>
      <trkpt lat="44.42567" lon="4.82673">
        <ele>128.95</ele>
        <time>2017-12-14T14:56:58Z</time>
      </trkpt>
      <trkpt lat="44.42564" lon="4.82665">
        <ele>128.95</ele>
        <time>2017-12-14T14:57:03Z</time>
      </trkpt>
      <trkpt lat="44.42561" lon="4.82656">
        <ele>127.99</ele>
        <time>2017-12-14T14:57:16Z</time>
      </trkpt>
      <trkpt lat="44.42557" lon="4.8264">
        <ele>127.51</ele>
        <time>2017-12-14T14:57:28Z</time>
      </trkpt>
      <trkpt lat="44.42556" lon="4.82636">
        <ele>127.99</ele>
        <time>2017-12-14T14:57:31Z</time>
      </trkpt>
      <trkpt lat="44.42547" lon="4.82606">
        <ele>127.03</ele>
        <time>2017-12-14T14:57:44Z</time>
      </trkpt>
      <trkpt lat="44.42544" lon="4.82589">
        <ele>126.55</ele>
        <time>2017-12-14T14:57:54Z</time>
      </trkpt>
      <trkpt lat="44.42543" lon="4.82582">
        <ele>126.55</ele>
        <time>2017-12-14T14:57:58Z</time>
      </trkpt>
      <trkpt lat="44.42539" lon="4.82566">
        <ele>125.59</ele>
        <time>2017-12-14T14:58:10Z</time>
      </trkpt>
      <trkpt lat="44.42534" lon="4.8255">
        <ele>125.59</ele>
        <time>2017-12-14T14:58:17Z</time>
      </trkpt>
      <trkpt lat="44.42533" lon="4.82543">
        <ele>125.59</ele>
        <time>2017-12-14T14:58:22Z</time>
      </trkpt>
      <trkpt lat="44.42531" lon="4.82539">
        <ele>125.59</ele>
        <time>2017-12-14T14:58:25Z</time>
      </trkpt>
      <trkpt lat="44.4253" lon="4.82526">
        <ele>125.11</ele>
        <time>2017-12-14T14:58:33Z</time>
      </trkpt>
      <trkpt lat="44.42527" lon="4.82508">
        <ele>125.11</ele>
        <time>2017-12-14T14:58:46Z</time>
      </trkpt>
      <trkpt lat="44.42524" lon="4.82489">
        <ele>124.15</ele>
        <time>2017-12-14T14:58:57Z</time>
      </trkpt>
      <trkpt lat="44.42519" lon="4.82462">
        <ele>124.15</ele>
        <time>2017-12-14T14:59:12Z</time>
      </trkpt>
      <trkpt lat="44.42518" lon="4.82452">
        <ele>124.15</ele>
        <time>2017-12-14T14:59:20Z</time>
      </trkpt>
      <trkpt lat="44.42515" lon="4.82437">
        <ele>124.15</ele>
        <time>2017-12-14T14:59:29Z</time>
      </trkpt>
      <trkpt lat="44.42509" lon="4.82415">
        <ele>124.15</ele>
        <time>2017-12-14T14:59:41Z</time>
      </trkpt>
      <trkpt lat="44.42509" lon="4.82411">
        <ele>124.15</ele>
        <time>2017-12-14T14:59:43Z</time>
      </trkpt>
      <trkpt lat="44.42507" lon="4.824">
        <ele>123.67</ele>
        <time>2017-12-14T14:59:53Z</time>
      </trkpt>
      <trkpt lat="44.42506" lon="4.82393">
        <ele>123.67</ele>
        <time>2017-12-14T14:59:57Z</time>
      </trkpt>
      <trkpt lat="44.42504" lon="4.82374">
        <ele>123.67</ele>
        <time>2017-12-14T15:00:08Z</time>
      </trkpt>
      <trkpt lat="44.42502" lon="4.8237">
        <ele>124.15</ele>
        <time>2017-12-14T15:00:12Z</time>
      </trkpt>
      <trkpt lat="44.425" lon="4.82349">
        <ele>123.67</ele>
        <time>2017-12-14T15:00:24Z</time>
      </trkpt>
      <trkpt lat="44.42499" lon="4.82339">
        <ele>123.67</ele>
        <time>2017-12-14T15:00:32Z</time>
      </trkpt>
      <trkpt lat="44.42497" lon="4.82317">
        <ele>123.19</ele>
        <time>2017-12-14T15:00:44Z</time>
      </trkpt>
      <trkpt lat="44.42497" lon="4.82313">
        <ele>123.67</ele>
        <time>2017-12-14T15:00:49Z</time>
      </trkpt>
      <trkpt lat="44.42495" lon="4.82295">
        <ele>123.19</ele>
        <time>2017-12-14T15:00:59Z</time>
      </trkpt>
      <trkpt lat="44.42493" lon="4.82287">
        <ele>123.19</ele>
        <time>2017-12-14T15:01:06Z</time>
      </trkpt>
      <trkpt lat="44.42496" lon="4.82283">
        <ele>123.67</ele>
        <time>2017-12-14T15:01:09Z</time>
      </trkpt>
      <trkpt lat="44.42506" lon="4.82279">
        <ele>123.67</ele>
        <time>2017-12-14T15:01:21Z</time>
      </trkpt>
      <trkpt lat="44.42515" lon="4.82282">
        <ele>123.67</ele>
        <time>2017-12-14T15:01:31Z</time>
      </trkpt>
      <trkpt lat="44.42517" lon="4.82283">
        <ele>123.67</ele>
        <time>2017-12-14T15:01:35Z</time>
      </trkpt>
      <trkpt lat="44.42526" lon="4.82283">
        <ele>123.67</ele>
        <time>2017-12-14T15:01:45Z</time>
      </trkpt>
      <trkpt lat="44.42531" lon="4.82282">
        <ele>124.15</ele>
        <time>2017-12-14T15:01:50Z</time>
      </trkpt>
      <trkpt lat="44.42533" lon="4.82282">
        <ele>123.67</ele>
        <time>2017-12-14T15:01:52Z</time>
      </trkpt>
      <trkpt lat="44.42547" lon="4.8228">
        <ele>124.15</ele>
        <time>2017-12-14T15:02:03Z</time>
      </trkpt>
      <trkpt lat="44.42557" lon="4.82272">
        <ele>124.63</ele>
        <time>2017-12-14T15:02:13Z</time>
      </trkpt>
      <trkpt lat="44.42568" lon="4.82267">
        <ele>125.11</ele>
        <time>2017-12-14T15:02:24Z</time>
      </trkpt>
      <trkpt lat="44.42572" lon="4.82265">
        <ele>125.11</ele>
        <time>2017-12-14T15:02:28Z</time>
      </trkpt>
      <trkpt lat="44.42574" lon="4.82265">
        <ele>125.11</ele>
        <time>2017-12-14T15:02:30Z</time>
      </trkpt>
      <trkpt lat="44.42579" lon="4.82262">
        <ele>125.59</ele>
        <time>2017-12-14T15:02:36Z</time>
      </trkpt>
      <trkpt lat="44.42587" lon="4.8226">
        <ele>125.59</ele>
        <time>2017-12-14T15:02:42Z</time>
      </trkpt>
      <trkpt lat="44.426" lon="4.82254">
        <ele>126.07</ele>
        <time>2017-12-14T15:02:55Z</time>
      </trkpt>
      <trkpt lat="44.42601" lon="4.82253">
        <ele>126.55</ele>
        <time>2017-12-14T15:02:57Z</time>
      </trkpt>
      <trkpt lat="44.42604" lon="4.82253">
        <ele>126.55</ele>
        <time>2017-12-14T15:02:59Z</time>
      </trkpt>
      <trkpt lat="44.42621" lon="4.82247">
        <ele>127.51</ele>
        <time>2017-12-14T15:03:14Z</time>
      </trkpt>
      <trkpt lat="44.42622" lon="4.82246">
        <ele>127.51</ele>
        <time>2017-12-14T15:03:16Z</time>
      </trkpt>
      <trkpt lat="44.42635" lon="4.82241">
        <ele>128.47</ele>
        <time>2017-12-14T15:03:28Z</time>
      </trkpt>
      <trkpt lat="44.42644" lon="4.82237">
        <ele>128.95</ele>
        <time>2017-12-14T15:03:36Z</time>
      </trkpt>
      <trkpt lat="44.4265" lon="4.82235">
        <ele>129.43</ele>
        <time>2017-12-14T15:03:43Z</time>
      </trkpt>
      <trkpt lat="44.42658" lon="4.82232">
        <ele>129.43</ele>
        <time>2017-12-14T15:03:50Z</time>
      </trkpt>
      <trkpt lat="44.42672" lon="4.82228">
        <ele>130.4</ele>
        <time>2017-12-14T15:04:02Z</time>
      </trkpt>
      <trkpt lat="44.42678" lon="4.82228">
        <ele>130.88</ele>
        <time>2017-12-14T15:04:09Z</time>
      </trkpt>
      <trkpt lat="44.42686" lon="4.82218">
        <ele>131.84</ele>
        <time>2017-12-14T15:04:23Z</time>
      </trkpt>
      <trkpt lat="44.4269" lon="4.8221">
        <ele>132.32</ele>
        <time>2017-12-14T15:04:31Z</time>
      </trkpt>
      <trkpt lat="44.42696" lon="4.82201">
        <ele>133.28</ele>
        <time>2017-12-14T15:04:39Z</time>
      </trkpt>
      <trkpt lat="44.42697" lon="4.8219">
        <ele>134.24</ele>
        <time>2017-12-14T15:04:46Z</time>
      </trkpt>
      <trkpt lat="44.42697" lon="4.82184">
        <ele>134.72</ele>
        <time>2017-12-14T15:04:50Z</time>
      </trkpt>
      <trkpt lat="44.42696" lon="4.82174">
        <ele>135.68</ele>
        <time>2017-12-14T15:04:57Z</time>
      </trkpt>
      <trkpt lat="44.42689" lon="4.82155">
        <ele>137.13</ele>
        <time>2017-12-14T15:05:11Z</time>
      </trkpt>
      <trkpt lat="44.4268" lon="4.82139">
        <ele>138.57</ele>
        <time>2017-12-14T15:05:23Z</time>
      </trkpt>
      <trkpt lat="44.42671" lon="4.82127">
        <ele>139.53</ele>
        <time>2017-12-14T15:05:34Z</time>
      </trkpt>
      <trkpt lat="44.42672" lon="4.82111">
        <ele>140.49</ele>
        <time>2017-12-14T15:05:46Z</time>
      </trkpt>
      <trkpt lat="44.42672" lon="4.82109">
        <ele>140.49</ele>
        <time>2017-12-14T15:05:47Z</time>
      </trkpt>
      <trkpt lat="44.42678" lon="4.82094">
        <ele>140.49</ele>
        <time>2017-12-14T15:05:58Z</time>
      </trkpt>
      <trkpt lat="44.42679" lon="4.82091">
        <ele>140.01</ele>
        <time>2017-12-14T15:06:00Z</time>
      </trkpt>
      <trkpt lat="44.42683" lon="4.82078">
        <ele>140.01</ele>
        <time>2017-12-14T15:06:10Z</time>
      </trkpt>
      <trkpt lat="44.42678" lon="4.8206">
        <ele>138.09</ele>
        <time>2017-12-14T15:06:24Z</time>
      </trkpt>
      <trkpt lat="44.42666" lon="4.82052">
        <ele>136.64</ele>
        <time>2017-12-14T15:06:38Z</time>
      </trkpt>
      <trkpt lat="44.42663" lon="4.82052">
        <ele>136.16</ele>
        <time>2017-12-14T15:06:43Z</time>
      </trkpt>
      <trkpt lat="44.4265" lon="4.82054">
        <ele>134.24</ele>
        <time>2017-12-14T15:06:57Z</time>
      </trkpt>
      <trkpt lat="44.42636" lon="4.82051">
        <ele>132.8</ele>
        <time>2017-12-14T15:07:11Z</time>
      </trkpt>
      <trkpt lat="44.4262" lon="4.82044">
        <ele>131.84</ele>
        <time>2017-12-14T15:07:25Z</time>
      </trkpt>
      <trkpt lat="44.42617" lon="4.82041">
        <ele>131.36</ele>
        <time>2017-12-14T15:07:28Z</time>
      </trkpt>
      <trkpt lat="44.42611" lon="4.82029">
        <ele>130.88</ele>
        <time>2017-12-14T15:07:38Z</time>
      </trkpt>
      <trkpt lat="44.42606" lon="4.82014">
        <ele>129.43</ele>
        <time>2017-12-14T15:07:55Z</time>
      </trkpt>
      <trkpt lat="44.42606" lon="4.8199">
        <ele>127.99</ele>
        <time>2017-12-14T15:08:11Z</time>
      </trkpt>
      <trkpt lat="44.42606" lon="4.81988">
        <ele>127.99</ele>
        <time>2017-12-14T15:08:12Z</time>
      </trkpt>
      <trkpt lat="44.42605" lon="4.81974">
        <ele>127.51</ele>
        <time>2017-12-14T15:08:21Z</time>
      </trkpt>
      <trkpt lat="44.42602" lon="4.81964">
        <ele>127.03</ele>
        <time>2017-12-14T15:08:30Z</time>
      </trkpt>
      <trkpt lat="44.42588" lon="4.81952">
        <ele>126.07</ele>
        <time>2017-12-14T15:08:43Z</time>
      </trkpt>
      <trkpt lat="44.4258" lon="4.81941">
        <ele>125.11</ele>
        <time>2017-12-14T15:08:54Z</time>
      </trkpt>
      <trkpt lat="44.4257" lon="4.81927">
        <ele>124.15</ele>
        <time>2017-12-14T15:09:08Z</time>
      </trkpt>
      <trkpt lat="44.42569" lon="4.81926">
        <ele>124.15</ele>
        <time>2017-12-14T15:09:09Z</time>
      </trkpt>
      <trkpt lat="44.42556" lon="4.81911">
        <ele>123.19</ele>
        <time>2017-12-14T15:09:22Z</time>
      </trkpt>
      <trkpt lat="44.42541" lon="4.81898">
        <ele>122.71</ele>
        <time>2017-12-14T15:09:34Z</time>
      </trkpt>
      <trkpt lat="44.42528" lon="4.81896">
        <ele>122.22</ele>
        <time>2017-12-14T15:09:49Z</time>
      </trkpt>
      <trkpt lat="44.42517" lon="4.81891">
        <ele>121.74</ele>
        <time>2017-12-14T15:09:57Z</time>
      </trkpt>
      <trkpt lat="44.42502" lon="4.81884">
        <ele>121.26</ele>
        <time>2017-12-14T15:10:10Z</time>
      </trkpt>
      <trkpt lat="44.42482" lon="4.81878">
        <ele>120.78</ele>
        <time>2017-12-14T15:10:26Z</time>
      </trkpt>
      <trkpt lat="44.42467" lon="4.81872">
        <ele>120.3</ele>
        <time>2017-12-14T15:10:41Z</time>
      </trkpt>
      <trkpt lat="44.42454" lon="4.8186">
        <ele>119.82</ele>
        <time>2017-12-14T15:10:56Z</time>
      </trkpt>
      <trkpt lat="44.42446" lon="4.81854">
        <ele>119.34</ele>
        <time>2017-12-14T15:11:05Z</time>
      </trkpt>
      <trkpt lat="44.42441" lon="4.81851">
        <ele>118.86</ele>
        <time>2017-12-14T15:11:09Z</time>
      </trkpt>
      <trkpt lat="44.42439" lon="4.81849">
        <ele>119.34</ele>
        <time>2017-12-14T15:11:11Z</time>
      </trkpt>
      <trkpt lat="44.42435" lon="4.81843">
        <ele>118.86</ele>
        <time>2017-12-14T15:11:16Z</time>
      </trkpt>
      <trkpt lat="44.42417" lon="4.81827">
        <ele>118.38</ele>
        <time>2017-12-14T15:11:32Z</time>
      </trkpt>
      <trkpt lat="44.42407" lon="4.81817">
        <ele>118.38</ele>
        <time>2017-12-14T15:11:47Z</time>
      </trkpt>
      <trkpt lat="44.42397" lon="4.81805">
        <ele>118.38</ele>
        <time>2017-12-14T15:11:57Z</time>
      </trkpt>
      <trkpt lat="44.42388" lon="4.81797">
        <ele>117.9</ele>
        <time>2017-12-14T15:12:05Z</time>
      </trkpt>
      <trkpt lat="44.42387" lon="4.81795">
        <ele>117.9</ele>
        <time>2017-12-14T15:12:07Z</time>
      </trkpt>
      <trkpt lat="44.42373" lon="4.81785">
        <ele>117.9</ele>
        <time>2017-12-14T15:12:20Z</time>
      </trkpt>
      <trkpt lat="44.42369" lon="4.8178">
        <ele>117.9</ele>
        <time>2017-12-14T15:12:24Z</time>
      </trkpt>
      <trkpt lat="44.42363" lon="4.81773">
        <ele>117.42</ele>
        <time>2017-12-14T15:12:31Z</time>
      </trkpt>
      <trkpt lat="44.42359" lon="4.81769">
        <ele>117.42</ele>
        <time>2017-12-14T15:12:35Z</time>
      </trkpt>
      <trkpt lat="44.42354" lon="4.81764">
        <ele>117.42</ele>
        <time>2017-12-14T15:12:40Z</time>
      </trkpt>
      <trkpt lat="44.42337" lon="4.81747">
        <ele>117.9</ele>
        <time>2017-12-14T15:12:55Z</time>
      </trkpt>
      <trkpt lat="44.42324" lon="4.81737">
        <ele>117.42</ele>
        <time>2017-12-14T15:13:06Z</time>
      </trkpt>
      <trkpt lat="44.42321" lon="4.8173">
        <ele>117.42</ele>
        <time>2017-12-14T15:13:17Z</time>
      </trkpt>
      <trkpt lat="44.42312" lon="4.81722">
        <ele>117.9</ele>
        <time>2017-12-14T15:13:29Z</time>
      </trkpt>
      <trkpt lat="44.42298" lon="4.8171">
        <ele>117.9</ele>
        <time>2017-12-14T15:13:42Z</time>
      </trkpt>
      <trkpt lat="44.42294" lon="4.81701">
        <ele>117.9</ele>
        <time>2017-12-14T15:14:00Z</time>
      </trkpt>
      <trkpt lat="44.4229" lon="4.81687">
        <ele>118.38</ele>
        <time>2017-12-14T15:14:12Z</time>
      </trkpt>
      <trkpt lat="44.42287" lon="4.81682">
        <ele>118.86</ele>
        <time>2017-12-14T15:14:17Z</time>
      </trkpt>
      <trkpt lat="44.42284" lon="4.81662">
        <ele>119.82</ele>
        <time>2017-12-14T15:14:30Z</time>
      </trkpt>
      <trkpt lat="44.42284" lon="4.81661">
        <ele>119.82</ele>
        <time>2017-12-14T15:14:31Z</time>
      </trkpt>
      <trkpt lat="44.42284" lon="4.81654">
        <ele>120.3</ele>
        <time>2017-12-14T15:14:36Z</time>
      </trkpt>
      <trkpt lat="44.42279" lon="4.81636">
        <ele>121.74</ele>
        <time>2017-12-14T15:14:50Z</time>
      </trkpt>
      <trkpt lat="44.42278" lon="4.81634">
        <ele>121.74</ele>
        <time>2017-12-14T15:14:51Z</time>
      </trkpt>
      <trkpt lat="44.42278" lon="4.81629">
        <ele>122.22</ele>
        <time>2017-12-14T15:14:54Z</time>
      </trkpt>
      <trkpt lat="44.42275" lon="4.81613">
        <ele>122.71</ele>
        <time>2017-12-14T15:15:06Z</time>
      </trkpt>
      <trkpt lat="44.42271" lon="4.81606">
        <ele>123.67</ele>
        <time>2017-12-14T15:15:14Z</time>
      </trkpt>
      <trkpt lat="44.42268" lon="4.81602">
        <ele>123.67</ele>
        <time>2017-12-14T15:15:17Z</time>
      </trkpt>
      <trkpt lat="44.42258" lon="4.8159">
        <ele>124.15</ele>
        <time>2017-12-14T15:15:32Z</time>
      </trkpt>
      <trkpt lat="44.42247" lon="4.81581">
        <ele>125.11</ele>
        <time>2017-12-14T15:15:45Z</time>
      </trkpt>
      <trkpt lat="44.42242" lon="4.81577">
        <ele>125.59</ele>
        <time>2017-12-14T15:15:49Z</time>
      </trkpt>
      <trkpt lat="44.42227" lon="4.81561">
        <ele>126.55</ele>
        <time>2017-12-14T15:16:03Z</time>
      </trkpt>
      <trkpt lat="44.42219" lon="4.81548">
        <ele>127.99</ele>
        <time>2017-12-14T15:16:16Z</time>
      </trkpt>
      <trkpt lat="44.42216" lon="4.81534">
        <ele>128.47</ele>
        <time>2017-12-14T15:16:27Z</time>
      </trkpt>
      <trkpt lat="44.42207" lon="4.81527">
        <ele>128.95</ele>
        <time>2017-12-14T15:16:43Z</time>
      </trkpt>
      <trkpt lat="44.42206" lon="4.81519">
        <ele>129.43</ele>
        <time>2017-12-14T15:16:57Z</time>
      </trkpt>
      <trkpt lat="44.42195" lon="4.81505">
        <ele>129.92</ele>
        <time>2017-12-14T15:17:11Z</time>
      </trkpt>
      <trkpt lat="44.42188" lon="4.81495">
        <ele>130.88</ele>
        <time>2017-12-14T15:17:24Z</time>
      </trkpt>
      <trkpt lat="44.42186" lon="4.81484">
        <ele>131.84</ele>
        <time>2017-12-14T15:17:35Z</time>
      </trkpt>
      <trkpt lat="44.42184" lon="4.81477">
        <ele>131.84</ele>
        <time>2017-12-14T15:17:39Z</time>
      </trkpt>
      <trkpt lat="44.4218" lon="4.81453">
        <ele>132.8</ele>
        <time>2017-12-14T15:17:56Z</time>
      </trkpt>
      <trkpt lat="44.4218" lon="4.8145">
        <ele>133.28</ele>
        <time>2017-12-14T15:17:59Z</time>
      </trkpt>
      <trkpt lat="44.42174" lon="4.81434">
        <ele>134.72</ele>
        <time>2017-12-14T15:18:10Z</time>
      </trkpt>
      <trkpt lat="44.42171" lon="4.81428">
        <ele>135.2</ele>
        <time>2017-12-14T15:18:14Z</time>
      </trkpt>
      <trkpt lat="44.42167" lon="4.81403">
        <ele>136.16</ele>
        <time>2017-12-14T15:18:29Z</time>
      </trkpt>
      <trkpt lat="44.42167" lon="4.81384">
        <ele>138.09</ele>
        <time>2017-12-14T15:18:43Z</time>
      </trkpt>
      <trkpt lat="44.42167" lon="4.81378">
        <ele>138.57</ele>
        <time>2017-12-14T15:18:46Z</time>
      </trkpt>
      <trkpt lat="44.4217" lon="4.81367">
        <ele>138.57</ele>
        <time>2017-12-14T15:18:51Z</time>
      </trkpt>
      <trkpt lat="44.42171" lon="4.81358">
        <ele>139.05</ele>
        <time>2017-12-14T15:18:55Z</time>
      </trkpt>
      <trkpt lat="44.42169" lon="4.81353">
        <ele>138.57</ele>
        <time>2017-12-14T15:19:00Z</time>
      </trkpt>
      <trkpt lat="44.42167" lon="4.81352">
        <ele>138.57</ele>
        <time>2017-12-14T15:19:02Z</time>
      </trkpt>
      <trkpt lat="44.42162" lon="4.8134">
        <ele>136.64</ele>
        <time>2017-12-14T15:19:17Z</time>
      </trkpt>
      <trkpt lat="44.4216" lon="4.81331">
        <ele>136.16</ele>
        <time>2017-12-14T15:19:34Z</time>
      </trkpt>
      <trkpt lat="44.42155" lon="4.81334">
        <ele>135.68</ele>
        <time>2017-12-14T15:19:44Z</time>
      </trkpt>
      <trkpt lat="44.42149" lon="4.81342">
        <ele>135.2</ele>
        <time>2017-12-14T15:19:49Z</time>
      </trkpt>
      <trkpt lat="44.4214" lon="4.8135">
        <ele>132.8</ele>
        <time>2017-12-14T15:20:01Z</time>
      </trkpt>
      <trkpt lat="44.42139" lon="4.8135">
        <ele>132.8</ele>
        <time>2017-12-14T15:20:03Z</time>
      </trkpt>
      <trkpt lat="44.42131" lon="4.81347">
        <ele>132.8</ele>
        <time>2017-12-14T15:20:09Z</time>
      </trkpt>
      <trkpt lat="44.42124" lon="4.81321">
        <ele>133.76</ele>
        <time>2017-12-14T15:20:24Z</time>
      </trkpt>
      <trkpt lat="44.42124" lon="4.81319">
        <ele>133.76</ele>
        <time>2017-12-14T15:20:25Z</time>
      </trkpt>
      <trkpt lat="44.42124" lon="4.81312">
        <ele>133.76</ele>
        <time>2017-12-14T15:20:32Z</time>
      </trkpt>
      <trkpt lat="44.42145" lon="4.81313">
        <ele>133.76</ele>
        <time>2017-12-14T15:20:45Z</time>
      </trkpt>
      <trkpt lat="44.42145" lon="4.81313">
        <ele>133.76</ele>
        <time>2017-12-14T15:20:46Z</time>
      </trkpt>
      <trkpt lat="44.42131" lon="4.81313">
        <ele>134.24</ele>
        <time>2017-12-14T15:20:57Z</time>
      </trkpt>
      <trkpt lat="44.42123" lon="4.81321">
        <ele>134.72</ele>
        <time>2017-12-14T15:21:03Z</time>
      </trkpt>
      <trkpt lat="44.42119" lon="4.81334">
        <ele>133.76</ele>
        <time>2017-12-14T15:21:09Z</time>
      </trkpt>
      <trkpt lat="44.42121" lon="4.81347">
        <ele>133.28</ele>
        <time>2017-12-14T15:21:14Z</time>
      </trkpt>
      <trkpt lat="44.4213" lon="4.81356">
        <ele>133.28</ele>
        <time>2017-12-14T15:21:20Z</time>
      </trkpt>
      <trkpt lat="44.42137" lon="4.81359">
        <ele>132.8</ele>
        <time>2017-12-14T15:21:26Z</time>
      </trkpt>
      <trkpt lat="44.42135" lon="4.81375">
        <ele>131.84</ele>
        <time>2017-12-14T15:21:34Z</time>
      </trkpt>
      <trkpt lat="44.42135" lon="4.8139">
        <ele>130.4</ele>
        <time>2017-12-14T15:21:43Z</time>
      </trkpt>
      <trkpt lat="44.42131" lon="4.81414">
        <ele>127.99</ele>
        <time>2017-12-14T15:21:57Z</time>
      </trkpt>
      <trkpt lat="44.42131" lon="4.81413">
        <ele>127.51</ele>
        <time>2017-12-14T15:21:58Z</time>
      </trkpt>
      <trkpt lat="44.42131" lon="4.81402">
        <ele>127.99</ele>
        <time>2017-12-14T15:22:05Z</time>
      </trkpt>
      <trkpt lat="44.42127" lon="4.81389">
        <ele>128.47</ele>
        <time>2017-12-14T15:22:18Z</time>
      </trkpt>
      <trkpt lat="44.4213" lon="4.81394">
        <ele>128.47</ele>
        <time>2017-12-14T15:22:34Z</time>
      </trkpt>
      <trkpt lat="44.4213" lon="4.81393">
        <ele>128.47</ele>
        <time>2017-12-14T15:22:46Z</time>
      </trkpt>
      <trkpt lat="44.42128" lon="4.81391">
        <ele>128.47</ele>
        <time>2017-12-14T15:23:06Z</time>
      </trkpt>
      <trkpt lat="44.42127" lon="4.81392">
        <ele>128.47</ele>
        <time>2017-12-14T15:23:27Z</time>
      </trkpt>
      <trkpt lat="44.42129" lon="4.81392">
        <ele>128.95</ele>
        <time>2017-12-14T15:23:47Z</time>
      </trkpt>
      <trkpt lat="44.42126" lon="4.81388">
        <ele>128.95</ele>
        <time>2017-12-14T15:23:59Z</time>
      </trkpt>
      <trkpt lat="44.42127" lon="4.81388">
        <ele>128.47</ele>
        <time>2017-12-14T15:24:14Z</time>
      </trkpt>
      <trkpt lat="44.42125" lon="4.81393">
        <ele>128.95</ele>
        <time>2017-12-14T15:24:26Z</time>
      </trkpt>
      <trkpt lat="44.42126" lon="4.81395">
        <ele>129.43</ele>
        <time>2017-12-14T15:24:43Z</time>
      </trkpt>
      <trkpt lat="44.42127" lon="4.81397">
        <ele>129.43</ele>
        <time>2017-12-14T15:24:57Z</time>
      </trkpt>
      <trkpt lat="44.42128" lon="4.81398">
        <ele>129.43</ele>
        <time>2017-12-14T15:25:16Z</time>
      </trkpt>
    </trkseg>
  </trk>
</gpx>